<?xml version="1.0" encoding="UTF-8" standalone="yes"?>
<gpx xmlns="http://www.topografix.com/GPX/1/1" xmlns:gpxtrx="http://www.garmin.com/xmlschemas/GpxExtensions/v3" xmlns:rcxx="http://www.routeconverter.de/xmlschemas/RouteCatalogExtensions/1.0" xmlns:xsi="http://www.w3.org/2001/XMLSchema-instance" xmlns:gpxtpx="http://www.garmin.com/xmlschemas/TrackPointExtension/v1" xmlns:gpxx="http://www.garmin.com/xmlschemas/WaypointExtension/v1" xmlns:nmea="http://trekbuddy.net/2009/01/gpx/nmea" creator="Generated by Christian Pesch's RouteConverter. See http://www.routeconverter.com" version="1.1">
    <trk>
        <name>Hin</name>
        <trkseg>
            <trkpt lon="11.741319755" lat="48.408168582">
                <ele>486.08374</ele>
                <time>2012-03-25T11:16:46.000Z</time>
                <name>Position 1</name>
            </trkpt>
            <trkpt lon="11.741304165" lat="48.408204876">
                <ele>487.045044</ele>
                <time>2012-03-25T11:17:19.000Z</time>
                <name>Position 2</name>
            </trkpt>
            <trkpt lon="11.741293855" lat="48.408229267">
                <ele>487.045044</ele>
                <time>2012-03-25T11:17:20.000Z</time>
                <name>Position 3</name>
            </trkpt>
            <trkpt lon="11.741079194" lat="48.408281654">
                <ele>487.045044</ele>
                <time>2012-03-25T11:17:25.000Z</time>
                <name>Position 4</name>
            </trkpt>
            <trkpt lon="11.740455162" lat="48.408349631">
                <ele>488.00647</ele>
                <time>2012-03-25T11:17:38.000Z</time>
                <name>Position 5</name>
            </trkpt>
            <trkpt lon="11.739801373" lat="48.408335131">
                <ele>491.370972</ele>
                <time>2012-03-25T11:17:51.000Z</time>
                <name>Position 6</name>
            </trkpt>
            <trkpt lon="11.738854386" lat="48.408298083">
                <ele>493.774292</ele>
                <time>2012-03-25T11:18:09.000Z</time>
                <name>Position 7</name>
            </trkpt>
            <trkpt lon="11.738469824" lat="48.408260364">
                <ele>495.696899</ele>
                <time>2012-03-25T11:18:16.000Z</time>
                <name>Position 8</name>
            </trkpt>
            <trkpt lon="11.737723332" lat="48.408253156">
                <ele>499.061523</ele>
                <time>2012-03-25T11:18:32.000Z</time>
                <name>Position 9</name>
            </trkpt>
            <trkpt lon="11.737435162" lat="48.408254748">
                <ele>500.50354</ele>
                <time>2012-03-25T11:18:39.000Z</time>
                <name>Position 10</name>
            </trkpt>
            <trkpt lon="11.737342626" lat="48.408433953">
                <ele>501.464844</ele>
                <time>2012-03-25T11:18:49.000Z</time>
                <name>Position 11</name>
            </trkpt>
            <trkpt lon="11.737294262" lat="48.409282537">
                <ele>500.50354</ele>
                <time>2012-03-25T11:19:11.000Z</time>
                <name>Position 12</name>
            </trkpt>
            <trkpt lon="11.737245815" lat="48.409860134">
                <ele>501.464844</ele>
                <time>2012-03-25T11:19:26.000Z</time>
                <name>Position 13</name>
            </trkpt>
            <trkpt lon="11.737132072" lat="48.410353661">
                <ele>498.100342</ele>
                <time>2012-03-25T11:19:39.000Z</time>
                <name>Position 14</name>
            </trkpt>
            <trkpt lon="11.737132072" lat="48.410353661">
                <ele>497.619629</ele>
                <time>2012-03-25T11:19:48.000Z</time>
                <name>Position 15</name>
            </trkpt>
            <trkpt lon="11.73696192" lat="48.410757752">
                <ele>497.619629</ele>
                <time>2012-03-25T11:20:00.000Z</time>
                <name>Position 16</name>
            </trkpt>
            <trkpt lon="11.736747595" lat="48.410787089">
                <ele>498.580933</ele>
                <time>2012-03-25T11:20:03.000Z</time>
                <name>Position 17</name>
            </trkpt>
            <trkpt lon="11.736347107" lat="48.410676951">
                <ele>501.464844</ele>
                <time>2012-03-25T11:20:12.000Z</time>
                <name>Position 18</name>
            </trkpt>
            <trkpt lon="11.736303018" lat="48.410664797">
                <ele>501.464844</ele>
                <time>2012-03-25T11:20:13.000Z</time>
                <name>Position 19</name>
            </trkpt>
            <trkpt lon="11.735546635" lat="48.41048291">
                <ele>503.387451</ele>
                <time>2012-03-25T11:20:32.000Z</time>
                <name>Position 20</name>
            </trkpt>
            <trkpt lon="11.735546635" lat="48.41048291">
                <ele>503.868164</ele>
                <time>2012-03-25T11:20:57.000Z</time>
                <name>Position 21</name>
            </trkpt>
            <trkpt lon="11.735200379" lat="48.410385763">
                <ele>503.387451</ele>
                <time>2012-03-25T11:21:07.000Z</time>
                <name>Position 22</name>
            </trkpt>
            <trkpt lon="11.734714229" lat="48.410262465">
                <ele>502.426147</ele>
                <time>2012-03-25T11:21:17.000Z</time>
                <name>Position 23</name>
            </trkpt>
            <trkpt lon="11.734567462" lat="48.410208402">
                <ele>501.464844</ele>
                <time>2012-03-25T11:21:19.000Z</time>
                <name>Position 24</name>
            </trkpt>
            <trkpt lon="11.733811582" lat="48.409985695">
                <ele>498.100342</ele>
                <time>2012-03-25T11:21:27.000Z</time>
                <name>Position 25</name>
            </trkpt>
            <trkpt lon="11.733504971" lat="48.409910006">
                <ele>494.735596</ele>
                <time>2012-03-25T11:21:30.000Z</time>
                <name>Position 26</name>
            </trkpt>
            <trkpt lon="11.732972804" lat="48.409728203">
                <ele>490.890381</ele>
                <time>2012-03-25T11:21:35.000Z</time>
                <name>Position 27</name>
            </trkpt>
            <trkpt lon="11.732476177" lat="48.409563331">
                <ele>487.525635</ele>
                <time>2012-03-25T11:21:39.000Z</time>
                <name>Position 28</name>
            </trkpt>
            <trkpt lon="11.732068649" lat="48.409415642">
                <ele>485.603027</ele>
                <time>2012-03-25T11:21:43.000Z</time>
                <name>Position 29</name>
            </trkpt>
            <trkpt lon="11.73164729" lat="48.409241214">
                <ele>482.719238</ele>
                <time>2012-03-25T11:21:48.000Z</time>
                <name>Position 30</name>
            </trkpt>
            <trkpt lon="11.731197517" lat="48.409102159">
                <ele>479.835083</ele>
                <time>2012-03-25T11:21:52.000Z</time>
                <name>Position 31</name>
            </trkpt>
            <trkpt lon="11.730572563" lat="48.408958828">
                <ele>477.912476</ele>
                <time>2012-03-25T11:21:57.000Z</time>
                <name>Position 32</name>
            </trkpt>
            <trkpt lon="11.730176769" lat="48.408917002">
                <ele>476.470581</ele>
                <time>2012-03-25T11:22:00.000Z</time>
                <name>Position 33</name>
            </trkpt>
            <trkpt lon="11.728712618" lat="48.409003755">
                <ele>473.58667</ele>
                <time>2012-03-25T11:22:12.000Z</time>
                <name>Position 34</name>
            </trkpt>
            <trkpt lon="11.726841275" lat="48.40917265">
                <ele>471.66394</ele>
                <time>2012-03-25T11:22:30.000Z</time>
                <name>Position 35</name>
            </trkpt>
            <trkpt lon="11.725640986" lat="48.40957867">
                <ele>471.18335</ele>
                <time>2012-03-25T11:22:45.000Z</time>
                <name>Position 36</name>
            </trkpt>
            <trkpt lon="11.724713948" lat="48.410147466">
                <ele>473.106079</ele>
                <time>2012-03-25T11:23:01.000Z</time>
                <name>Position 37</name>
            </trkpt>
            <trkpt lon="11.724116486" lat="48.410464302">
                <ele>473.58667</ele>
                <time>2012-03-25T11:23:12.000Z</time>
                <name>Position 38</name>
            </trkpt>
            <trkpt lon="11.7233078" lat="48.410828244">
                <ele>476.470581</ele>
                <time>2012-03-25T11:23:28.000Z</time>
                <name>Position 39</name>
            </trkpt>
            <trkpt lon="11.72313354" lat="48.410906615">
                <ele>478.393188</ele>
                <time>2012-03-25T11:23:33.000Z</time>
                <name>Position 40</name>
            </trkpt>
            <trkpt lon="11.722670272" lat="48.41115782">
                <ele>481.277222</ele>
                <time>2012-03-25T11:23:47.000Z</time>
                <name>Position 41</name>
            </trkpt>
            <trkpt lon="11.722129639" lat="48.4115283">
                <ele>481.277222</ele>
                <time>2012-03-25T11:24:03.000Z</time>
                <name>Position 42</name>
            </trkpt>
            <trkpt lon="11.721389852" lat="48.412009673">
                <ele>482.238525</ele>
                <time>2012-03-25T11:24:21.000Z</time>
                <name>Position 43</name>
            </trkpt>
            <trkpt lon="11.72120017" lat="48.412128864">
                <ele>481.757813</ele>
                <time>2012-03-25T11:24:25.000Z</time>
                <name>Position 44</name>
            </trkpt>
            <trkpt lon="11.721060108" lat="48.412216874">
                <ele>482.238525</ele>
                <time>2012-03-25T11:24:28.000Z</time>
                <name>Position 45</name>
            </trkpt>
            <trkpt lon="11.720485445" lat="48.412777623">
                <ele>480.315918</ele>
                <time>2012-03-25T11:24:42.000Z</time>
                <name>Position 46</name>
            </trkpt>
            <trkpt lon="11.720385868" lat="48.412954649">
                <ele>479.354492</ele>
                <time>2012-03-25T11:24:45.000Z</time>
                <name>Position 47</name>
            </trkpt>
            <trkpt lon="11.719425973" lat="48.414177066">
                <ele>476.951294</ele>
                <time>2012-03-25T11:25:04.000Z</time>
                <name>Position 48</name>
            </trkpt>
            <trkpt lon="11.718272287" lat="48.415089184">
                <ele>475.028687</ele>
                <time>2012-03-25T11:25:23.000Z</time>
                <name>Position 49</name>
            </trkpt>
            <trkpt lon="11.717508277" lat="48.41597138">
                <ele>474.547974</ele>
                <time>2012-03-25T11:25:41.000Z</time>
                <name>Position 50</name>
            </trkpt>
            <trkpt lon="11.717280457" lat="48.416724326">
                <ele>475.989868</ele>
                <time>2012-03-25T11:25:56.000Z</time>
                <name>Position 51</name>
            </trkpt>
            <trkpt lon="11.71699388" lat="48.41764315">
                <ele>475.989868</ele>
                <time>2012-03-25T11:26:14.000Z</time>
                <name>Position 52</name>
            </trkpt>
            <trkpt lon="11.716520302" lat="48.418296268">
                <ele>475.989868</ele>
                <time>2012-03-25T11:26:28.000Z</time>
                <name>Position 53</name>
            </trkpt>
            <trkpt lon="11.715958295" lat="48.418787867">
                <ele>475.028687</ele>
                <time>2012-03-25T11:26:39.000Z</time>
                <name>Position 54</name>
            </trkpt>
            <trkpt lon="11.715518748" lat="48.418964054">
                <ele>475.989868</ele>
                <time>2012-03-25T11:26:45.000Z</time>
                <name>Position 55</name>
            </trkpt>
            <trkpt lon="11.715195794" lat="48.418884343">
                <ele>476.470581</ele>
                <time>2012-03-25T11:26:49.000Z</time>
                <name>Position 56</name>
            </trkpt>
            <trkpt lon="11.7142333" lat="48.418915272">
                <ele>478.873901</ele>
                <time>2012-03-25T11:27:03.000Z</time>
                <name>Position 57</name>
            </trkpt>
            <trkpt lon="11.712934524" lat="48.419132531">
                <ele>480.796631</ele>
                <time>2012-03-25T11:27:22.000Z</time>
                <name>Position 58</name>
            </trkpt>
            <trkpt lon="11.712122988" lat="48.41928944">
                <ele>481.277222</ele>
                <time>2012-03-25T11:27:33.000Z</time>
                <name>Position 59</name>
            </trkpt>
            <trkpt lon="11.710852794" lat="48.41976285">
                <ele>480.796631</ele>
                <time>2012-03-25T11:27:51.000Z</time>
                <name>Position 60</name>
            </trkpt>
            <trkpt lon="11.709646555" lat="48.420060743">
                <ele>480.796631</ele>
                <time>2012-03-25T11:28:08.000Z</time>
                <name>Position 61</name>
            </trkpt>
            <trkpt lon="11.709177084" lat="48.420310104">
                <ele>480.796631</ele>
                <time>2012-03-25T11:28:16.000Z</time>
                <name>Position 62</name>
            </trkpt>
            <trkpt lon="11.709099133" lat="48.420407502">
                <ele>480.796631</ele>
                <time>2012-03-25T11:28:18.000Z</time>
                <name>Position 63</name>
            </trkpt>
            <trkpt lon="11.708661346" lat="48.42100203">
                <ele>481.277222</ele>
                <time>2012-03-25T11:28:31.000Z</time>
                <name>Position 64</name>
            </trkpt>
            <trkpt lon="11.70804075" lat="48.421517853">
                <ele>481.277222</ele>
                <time>2012-03-25T11:28:45.000Z</time>
                <name>Position 65</name>
            </trkpt>
            <trkpt lon="11.707066102" lat="48.422102155">
                <ele>483.199829</ele>
                <time>2012-03-25T11:29:07.000Z</time>
                <name>Position 66</name>
            </trkpt>
            <trkpt lon="11.706656897" lat="48.422482526">
                <ele>486.564453</ele>
                <time>2012-03-25T11:29:24.000Z</time>
                <name>Position 67</name>
            </trkpt>
            <trkpt lon="11.706160353" lat="48.422896005">
                <ele>487.525635</ele>
                <time>2012-03-25T11:29:40.000Z</time>
                <name>Position 68</name>
            </trkpt>
            <trkpt lon="11.705503799" lat="48.423435297">
                <ele>487.525635</ele>
                <time>2012-03-25T11:29:56.000Z</time>
                <name>Position 69</name>
            </trkpt>
            <trkpt lon="11.704721097" lat="48.424056312">
                <ele>486.08374</ele>
                <time>2012-03-25T11:30:10.000Z</time>
                <name>Position 70</name>
            </trkpt>
            <trkpt lon="11.703489209" lat="48.42465939">
                <ele>485.122437</ele>
                <time>2012-03-25T11:30:29.000Z</time>
                <name>Position 71</name>
            </trkpt>
            <trkpt lon="11.70249939" lat="48.425223827">
                <ele>484.641846</ele>
                <time>2012-03-25T11:30:48.000Z</time>
                <name>Position 72</name>
            </trkpt>
            <trkpt lon="11.701684082" lat="48.425606294">
                <ele>485.122437</ele>
                <time>2012-03-25T11:30:58.000Z</time>
                <name>Position 73</name>
            </trkpt>
            <trkpt lon="11.700447248" lat="48.426313391">
                <ele>484.641846</ele>
                <time>2012-03-25T11:31:19.000Z</time>
                <name>Position 74</name>
            </trkpt>
            <trkpt lon="11.699633617" lat="48.427019818">
                <ele>486.08374</ele>
                <time>2012-03-25T11:31:40.000Z</time>
                <name>Position 75</name>
            </trkpt>
            <trkpt lon="11.698924592" lat="48.42778299">
                <ele>486.564453</ele>
                <time>2012-03-25T11:32:02.000Z</time>
                <name>Position 76</name>
            </trkpt>
            <trkpt lon="11.698590154" lat="48.428443233">
                <ele>486.564453</ele>
                <time>2012-03-25T11:32:17.000Z</time>
                <name>Position 77</name>
            </trkpt>
            <trkpt lon="11.69779974" lat="48.42908998">
                <ele>487.525635</ele>
                <time>2012-03-25T11:32:36.000Z</time>
                <name>Position 78</name>
            </trkpt>
            <trkpt lon="11.697056852" lat="48.429787857">
                <ele>488.00647</ele>
                <time>2012-03-25T11:32:56.000Z</time>
                <name>Position 79</name>
            </trkpt>
            <trkpt lon="11.696238611" lat="48.430351624">
                <ele>489.448364</ele>
                <time>2012-03-25T11:33:16.000Z</time>
                <name>Position 80</name>
            </trkpt>
            <trkpt lon="11.696090419" lat="48.430453464">
                <ele>490.40979</ele>
                <time>2012-03-25T11:33:20.000Z</time>
                <name>Position 81</name>
            </trkpt>
            <trkpt lon="11.695393296" lat="48.430961408">
                <ele>492.812988</ele>
                <time>2012-03-25T11:33:40.000Z</time>
                <name>Position 82</name>
            </trkpt>
            <trkpt lon="11.694634734" lat="48.431406571">
                <ele>494.255005</ele>
                <time>2012-03-25T11:34:01.000Z</time>
                <name>Position 83</name>
            </trkpt>
            <trkpt lon="11.693753293" lat="48.431938905">
                <ele>493.774292</ele>
                <time>2012-03-25T11:34:24.000Z</time>
                <name>Position 84</name>
            </trkpt>
            <trkpt lon="11.692699101" lat="48.432592358">
                <ele>493.774292</ele>
                <time>2012-03-25T11:34:46.000Z</time>
                <name>Position 85</name>
            </trkpt>
            <trkpt lon="11.691609118" lat="48.433277411">
                <ele>494.255005</ele>
                <time>2012-03-25T11:35:08.000Z</time>
                <name>Position 86</name>
            </trkpt>
            <trkpt lon="11.690530116" lat="48.433946036">
                <ele>495.216187</ele>
                <time>2012-03-25T11:35:32.000Z</time>
                <name>Position 87</name>
            </trkpt>
            <trkpt lon="11.689698799" lat="48.434497062">
                <ele>496.658325</ele>
                <time>2012-03-25T11:35:53.000Z</time>
                <name>Position 88</name>
            </trkpt>
            <trkpt lon="11.688937889" lat="48.435127968">
                <ele>498.100342</ele>
                <time>2012-03-25T11:36:15.000Z</time>
                <name>Position 89</name>
            </trkpt>
            <trkpt lon="11.68831042" lat="48.435694249">
                <ele>500.022949</ele>
                <time>2012-03-25T11:36:35.000Z</time>
                <name>Position 90</name>
            </trkpt>
            <trkpt lon="11.687810607" lat="48.43616548">
                <ele>501.464844</ele>
                <time>2012-03-25T11:36:55.000Z</time>
                <name>Position 91</name>
            </trkpt>
            <trkpt lon="11.687477846" lat="48.436490279">
                <ele>504.348877</ele>
                <time>2012-03-25T11:37:10.000Z</time>
                <name>Position 92</name>
            </trkpt>
            <trkpt lon="11.687365361" lat="48.436636124">
                <ele>505.790894</ele>
                <time>2012-03-25T11:37:25.000Z</time>
                <name>Position 93</name>
            </trkpt>
            <trkpt lon="11.687365361" lat="48.436636124">
                <ele>505.310181</ele>
                <time>2012-03-25T11:37:46.000Z</time>
                <name>Position 94</name>
            </trkpt>
            <trkpt lon="11.687365361" lat="48.436636124">
                <ele>505.790894</ele>
                <time>2012-03-25T11:38:28.000Z</time>
                <name>Position 95</name>
            </trkpt>
            <trkpt lon="11.687365361" lat="48.436636124">
                <ele>504.829468</ele>
                <time>2012-03-25T11:40:48.000Z</time>
                <name>Position 96</name>
            </trkpt>
            <trkpt lon="11.687127482" lat="48.436959833">
                <ele>507.232788</ele>
                <time>2012-03-25T11:41:03.000Z</time>
                <name>Position 97</name>
            </trkpt>
            <trkpt lon="11.686796313" lat="48.437410612">
                <ele>509.636108</ele>
                <time>2012-03-25T11:41:21.000Z</time>
                <name>Position 98</name>
            </trkpt>
            <trkpt lon="11.68666807" lat="48.437613118">
                <ele>512.039429</ele>
                <time>2012-03-25T11:41:29.000Z</time>
                <name>Position 99</name>
            </trkpt>
            <trkpt lon="11.686538653" lat="48.438019138">
                <ele>515.404053</ele>
                <time>2012-03-25T11:41:43.000Z</time>
                <name>Position 100</name>
            </trkpt>
            <trkpt lon="11.686406136" lat="48.43829155">
                <ele>517.32666</ele>
                <time>2012-03-25T11:41:57.000Z</time>
                <name>Position 101</name>
            </trkpt>
            <trkpt lon="11.685982514" lat="48.438335638">
                <ele>517.807251</ele>
                <time>2012-03-25T11:42:08.000Z</time>
                <name>Position 102</name>
            </trkpt>
            <trkpt lon="11.685982514" lat="48.438335638">
                <ele>517.32666</ele>
                <time>2012-03-25T11:42:52.000Z</time>
                <name>Position 103</name>
            </trkpt>
            <trkpt lon="11.685982514" lat="48.438335638">
                <ele>517.32666</ele>
                <time>2012-03-25T11:43:06.000Z</time>
                <name>Position 104</name>
            </trkpt>
            <trkpt lon="11.68551757" lat="48.438368831">
                <ele>518.287842</ele>
                <time>2012-03-25T11:43:19.000Z</time>
                <name>Position 105</name>
            </trkpt>
            <trkpt lon="11.684531271" lat="48.438482741">
                <ele>519.249268</ele>
                <time>2012-03-25T11:43:37.000Z</time>
                <name>Position 106</name>
            </trkpt>
            <trkpt lon="11.684166742" lat="48.438534876">
                <ele>518.768555</ele>
                <time>2012-03-25T11:43:43.000Z</time>
                <name>Position 107</name>
            </trkpt>
            <trkpt lon="11.683989633" lat="48.438580055">
                <ele>519.249268</ele>
                <time>2012-03-25T11:43:46.000Z</time>
                <name>Position 108</name>
            </trkpt>
            <trkpt lon="11.683065696" lat="48.438490955">
                <ele>518.287842</ele>
                <time>2012-03-25T11:44:00.000Z</time>
                <name>Position 109</name>
            </trkpt>
            <trkpt lon="11.681968421" lat="48.438509312">
                <ele>519.729858</ele>
                <time>2012-03-25T11:44:18.000Z</time>
                <name>Position 110</name>
            </trkpt>
            <trkpt lon="11.681859624" lat="48.438548623">
                <ele>519.249268</ele>
                <time>2012-03-25T11:44:20.000Z</time>
                <name>Position 111</name>
            </trkpt>
            <trkpt lon="11.681010956" lat="48.439180534">
                <ele>519.729858</ele>
                <time>2012-03-25T11:44:39.000Z</time>
                <name>Position 112</name>
            </trkpt>
            <trkpt lon="11.680232864" lat="48.439816386">
                <ele>516.365234</ele>
                <time>2012-03-25T11:44:53.000Z</time>
                <name>Position 113</name>
            </trkpt>
            <trkpt lon="11.679699272" lat="48.439979833">
                <ele>515.404053</ele>
                <time>2012-03-25T11:44:59.000Z</time>
                <name>Position 114</name>
            </trkpt>
            <trkpt lon="11.679038946" lat="48.440077063">
                <ele>512.52002</ele>
                <time>2012-03-25T11:45:05.000Z</time>
                <name>Position 115</name>
            </trkpt>
            <trkpt lon="11.678398652" lat="48.440164486">
                <ele>509.636108</ele>
                <time>2012-03-25T11:45:10.000Z</time>
                <name>Position 116</name>
            </trkpt>
            <trkpt lon="11.67764998" lat="48.440450225">
                <ele>505.790894</ele>
                <time>2012-03-25T11:45:16.000Z</time>
                <name>Position 117</name>
            </trkpt>
            <trkpt lon="11.67755384" lat="48.440525075">
                <ele>504.829468</ele>
                <time>2012-03-25T11:45:17.000Z</time>
                <name>Position 118</name>
            </trkpt>
            <trkpt lon="11.677233316" lat="48.440966718">
                <ele>501.945557</ele>
                <time>2012-03-25T11:45:22.000Z</time>
                <name>Position 119</name>
            </trkpt>
            <trkpt lon="11.6769775" lat="48.441426549">
                <ele>499.542236</ele>
                <time>2012-03-25T11:45:27.000Z</time>
                <name>Position 120</name>
            </trkpt>
            <trkpt lon="11.676859986" lat="48.441602821">
                <ele>498.580933</ele>
                <time>2012-03-25T11:45:29.000Z</time>
                <name>Position 121</name>
            </trkpt>
            <trkpt lon="11.676247353" lat="48.442056198">
                <ele>496.177734</ele>
                <time>2012-03-25T11:45:36.000Z</time>
                <name>Position 122</name>
            </trkpt>
            <trkpt lon="11.675226353" lat="48.442288879">
                <ele>493.774292</ele>
                <time>2012-03-25T11:45:45.000Z</time>
                <name>Position 123</name>
            </trkpt>
            <trkpt lon="11.675118143" lat="48.44232182">
                <ele>493.293579</ele>
                <time>2012-03-25T11:45:46.000Z</time>
                <name>Position 124</name>
            </trkpt>
            <trkpt lon="11.674569715" lat="48.442660701">
                <ele>488.967773</ele>
                <time>2012-03-25T11:45:52.000Z</time>
                <name>Position 125</name>
            </trkpt>
            <trkpt lon="11.674372656" lat="48.442895142">
                <ele>486.564453</ele>
                <time>2012-03-25T11:45:55.000Z</time>
                <name>Position 126</name>
            </trkpt>
            <trkpt lon="11.674211975" lat="48.443162357">
                <ele>483.199829</ele>
                <time>2012-03-25T11:45:58.000Z</time>
                <name>Position 127</name>
            </trkpt>
            <trkpt lon="11.673509823" lat="48.443541555">
                <ele>479.354492</ele>
                <time>2012-03-25T11:46:04.000Z</time>
                <name>Position 128</name>
            </trkpt>
            <trkpt lon="11.673340006" lat="48.443560498">
                <ele>479.835083</ele>
                <time>2012-03-25T11:46:05.000Z</time>
                <name>Position 129</name>
            </trkpt>
            <trkpt lon="11.673036329" lat="48.4436242">
                <ele>475.989868</ele>
                <time>2012-03-25T11:46:07.000Z</time>
                <name>Position 130</name>
            </trkpt>
            <trkpt lon="11.672550431" lat="48.443870712">
                <ele>473.106079</ele>
                <time>2012-03-25T11:46:11.000Z</time>
                <name>Position 131</name>
            </trkpt>
            <trkpt lon="11.672066292" lat="48.444077661">
                <ele>467.818726</ele>
                <time>2012-03-25T11:46:15.000Z</time>
                <name>Position 132</name>
            </trkpt>
            <trkpt lon="11.671571005" lat="48.444265919">
                <ele>466.376709</ele>
                <time>2012-03-25T11:46:19.000Z</time>
                <name>Position 133</name>
            </trkpt>
            <trkpt lon="11.671450641" lat="48.444330795">
                <ele>464.934814</ele>
                <time>2012-03-25T11:46:20.000Z</time>
                <name>Position 134</name>
            </trkpt>
            <trkpt lon="11.671054009" lat="48.444674285">
                <ele>459.647583</ele>
                <time>2012-03-25T11:46:24.000Z</time>
                <name>Position 135</name>
            </trkpt>
            <trkpt lon="11.670752261" lat="48.444963964">
                <ele>456.282959</ele>
                <time>2012-03-25T11:46:27.000Z</time>
                <name>Position 136</name>
            </trkpt>
            <trkpt lon="11.670540618" lat="48.445149204">
                <ele>453.398926</ele>
                <time>2012-03-25T11:46:29.000Z</time>
                <name>Position 137</name>
            </trkpt>
            <trkpt lon="11.670429222" lat="48.445236962">
                <ele>453.398926</ele>
                <time>2012-03-25T11:46:30.000Z</time>
                <name>Position 138</name>
            </trkpt>
            <trkpt lon="11.669893451" lat="48.445483809">
                <ele>450.995605</ele>
                <time>2012-03-25T11:46:34.000Z</time>
                <name>Position 139</name>
            </trkpt>
            <trkpt lon="11.669041011" lat="48.445490263">
                <ele>449.553711</ele>
                <time>2012-03-25T11:46:40.000Z</time>
                <name>Position 140</name>
            </trkpt>
            <trkpt lon="11.668705652" lat="48.445401248">
                <ele>449.072998</ele>
                <time>2012-03-25T11:46:43.000Z</time>
                <name>Position 141</name>
            </trkpt>
            <trkpt lon="11.667579794" lat="48.444978883">
                <ele>448.592407</ele>
                <time>2012-03-25T11:46:57.000Z</time>
                <name>Position 142</name>
            </trkpt>
            <trkpt lon="11.666148333" lat="48.444594657">
                <ele>450.515015</ele>
                <time>2012-03-25T11:47:18.000Z</time>
                <name>Position 143</name>
            </trkpt>
            <trkpt lon="11.664873194" lat="48.444736311">
                <ele>449.072998</ele>
                <time>2012-03-25T11:47:34.000Z</time>
                <name>Position 144</name>
            </trkpt>
            <trkpt lon="11.663578022" lat="48.44519522">
                <ele>448.111816</ele>
                <time>2012-03-25T11:47:52.000Z</time>
                <name>Position 145</name>
            </trkpt>
            <trkpt lon="11.663297312" lat="48.445125818">
                <ele>448.111816</ele>
                <time>2012-03-25T11:47:57.000Z</time>
                <name>Position 146</name>
            </trkpt>
            <trkpt lon="11.66210264" lat="48.444605218">
                <ele>448.111816</ele>
                <time>2012-03-25T11:48:15.000Z</time>
                <name>Position 147</name>
            </trkpt>
            <trkpt lon="11.660740077" lat="48.444161816">
                <ele>449.072998</ele>
                <time>2012-03-25T11:48:37.000Z</time>
                <name>Position 148</name>
            </trkpt>
            <trkpt lon="11.660037171" lat="48.444057377">
                <ele>449.072998</ele>
                <time>2012-03-25T11:48:48.000Z</time>
                <name>Position 149</name>
            </trkpt>
            <trkpt lon="11.658682739" lat="48.444190985">
                <ele>448.592407</ele>
                <time>2012-03-25T11:49:06.000Z</time>
                <name>Position 150</name>
            </trkpt>
            <trkpt lon="11.657386143" lat="48.44457957">
                <ele>446.669678</ele>
                <time>2012-03-25T11:49:24.000Z</time>
                <name>Position 151</name>
            </trkpt>
            <trkpt lon="11.655731639" lat="48.44477185">
                <ele>446.189087</ele>
                <time>2012-03-25T11:49:45.000Z</time>
                <name>Position 152</name>
            </trkpt>
            <trkpt lon="11.654133713" lat="48.444930268">
                <ele>446.669678</ele>
                <time>2012-03-25T11:50:06.000Z</time>
                <name>Position 153</name>
            </trkpt>
            <trkpt lon="11.652950691" lat="48.445047531">
                <ele>446.669678</ele>
                <time>2012-03-25T11:50:24.000Z</time>
                <name>Position 154</name>
            </trkpt>
            <trkpt lon="11.651250925" lat="48.445195388">
                <ele>446.189087</ele>
                <time>2012-03-25T11:50:47.000Z</time>
                <name>Position 155</name>
            </trkpt>
            <trkpt lon="11.650017696" lat="48.445354141">
                <ele>446.669678</ele>
                <time>2012-03-25T11:51:04.000Z</time>
                <name>Position 156</name>
            </trkpt>
            <trkpt lon="11.649680911" lat="48.445451623">
                <ele>446.189087</ele>
                <time>2012-03-25T11:51:09.000Z</time>
                <name>Position 157</name>
            </trkpt>
            <trkpt lon="11.649216302" lat="48.445304604">
                <ele>446.189087</ele>
                <time>2012-03-25T11:51:17.000Z</time>
                <name>Position 158</name>
            </trkpt>
            <trkpt lon="11.648861831" lat="48.444937142">
                <ele>446.189087</ele>
                <time>2012-03-25T11:51:26.000Z</time>
                <name>Position 159</name>
            </trkpt>
            <trkpt lon="11.648769379" lat="48.44483614">
                <ele>446.189087</ele>
                <time>2012-03-25T11:51:29.000Z</time>
                <name>Position 160</name>
            </trkpt>
            <trkpt lon="11.647663135" lat="48.444384774">
                <ele>446.669678</ele>
                <time>2012-03-25T11:51:46.000Z</time>
                <name>Position 161</name>
            </trkpt>
            <trkpt lon="11.646296801" lat="48.444126947">
                <ele>447.150269</ele>
                <time>2012-03-25T11:52:06.000Z</time>
                <name>Position 162</name>
            </trkpt>
            <trkpt lon="11.644655373" lat="48.443893176">
                <ele>447.630981</ele>
                <time>2012-03-25T11:52:28.000Z</time>
                <name>Position 163</name>
            </trkpt>
            <trkpt lon="11.644070148" lat="48.443741798">
                <ele>447.150269</ele>
                <time>2012-03-25T11:52:40.000Z</time>
                <name>Position 164</name>
            </trkpt>
            <trkpt lon="11.644070148" lat="48.443741798">
                <ele>445.708374</ele>
                <time>2012-03-25T11:52:58.000Z</time>
                <name>Position 165</name>
            </trkpt>
            <trkpt lon="11.644070148" lat="48.443741798">
                <ele>449.553711</ele>
                <time>2012-03-25T11:53:03.000Z</time>
                <name>Position 166</name>
            </trkpt>
            <trkpt lon="11.644070148" lat="48.443741798">
                <ele>447.150269</ele>
                <time>2012-03-25T11:53:30.000Z</time>
                <name>Position 167</name>
            </trkpt>
            <trkpt lon="11.644032262" lat="48.443546835">
                <ele>446.669678</ele>
                <time>2012-03-25T11:53:38.000Z</time>
                <name>Position 168</name>
            </trkpt>
            <trkpt lon="11.644427804" lat="48.44281367">
                <ele>447.150269</ele>
                <time>2012-03-25T11:53:55.000Z</time>
                <name>Position 169</name>
            </trkpt>
            <trkpt lon="11.644422356" lat="48.442713423">
                <ele>446.669678</ele>
                <time>2012-03-25T11:53:57.000Z</time>
                <name>Position 170</name>
            </trkpt>
            <trkpt lon="11.643959088" lat="48.442445705">
                <ele>448.592407</ele>
                <time>2012-03-25T11:54:06.000Z</time>
                <name>Position 171</name>
            </trkpt>
            <trkpt lon="11.643891614" lat="48.442458361">
                <ele>448.592407</ele>
                <time>2012-03-25T11:54:07.000Z</time>
                <name>Position 172</name>
            </trkpt>
            <trkpt lon="11.643690784" lat="48.442495996">
                <ele>449.553711</ele>
                <time>2012-03-25T11:54:10.000Z</time>
                <name>Position 173</name>
            </trkpt>
            <trkpt lon="11.643301947" lat="48.44245702">
                <ele>449.553711</ele>
                <time>2012-03-25T11:54:16.000Z</time>
                <name>Position 174</name>
            </trkpt>
            <trkpt lon="11.643103296" lat="48.442421649">
                <ele>449.553711</ele>
                <time>2012-03-25T11:54:19.000Z</time>
                <name>Position 175</name>
            </trkpt>
            <trkpt lon="11.642811522" lat="48.442366412">
                <ele>449.553711</ele>
                <time>2012-03-25T11:54:23.000Z</time>
                <name>Position 176</name>
            </trkpt>
            <trkpt lon="11.642300226" lat="48.442328442">
                <ele>450.034424</ele>
                <time>2012-03-25T11:54:30.000Z</time>
                <name>Position 177</name>
            </trkpt>
            <trkpt lon="11.641920106" lat="48.442379152">
                <ele>450.515015</ele>
                <time>2012-03-25T11:54:35.000Z</time>
                <name>Position 178</name>
            </trkpt>
            <trkpt lon="11.6417637" lat="48.442389965">
                <ele>450.034424</ele>
                <time>2012-03-25T11:54:37.000Z</time>
                <name>Position 179</name>
            </trkpt>
            <trkpt lon="11.641442422" lat="48.442388624">
                <ele>450.515015</ele>
                <time>2012-03-25T11:54:41.000Z</time>
                <name>Position 180</name>
            </trkpt>
            <trkpt lon="11.640207097" lat="48.442236912">
                <ele>448.592407</ele>
                <time>2012-03-25T11:54:56.000Z</time>
                <name>Position 181</name>
            </trkpt>
            <trkpt lon="11.639449121" lat="48.442219393">
                <ele>449.072998</ele>
                <time>2012-03-25T11:55:06.000Z</time>
                <name>Position 182</name>
            </trkpt>
            <trkpt lon="11.638233075" lat="48.442157703">
                <ele>448.111816</ele>
                <time>2012-03-25T11:55:21.000Z</time>
                <name>Position 183</name>
            </trkpt>
            <trkpt lon="11.637211153" lat="48.441765346">
                <ele>450.995605</ele>
                <time>2012-03-25T11:55:37.000Z</time>
                <name>Position 184</name>
            </trkpt>
            <trkpt lon="11.636729613" lat="48.441519924">
                <ele>450.995605</ele>
                <time>2012-03-25T11:55:46.000Z</time>
                <name>Position 185</name>
            </trkpt>
            <trkpt lon="11.63559705" lat="48.441378605">
                <ele>451.476318</ele>
                <time>2012-03-25T11:56:01.000Z</time>
                <name>Position 186</name>
            </trkpt>
            <trkpt lon="11.635365793" lat="48.441334181">
                <ele>450.034424</ele>
                <time>2012-03-25T11:56:04.000Z</time>
                <name>Position 187</name>
            </trkpt>
            <trkpt lon="11.634925157" lat="48.441130668">
                <ele>450.515015</ele>
                <time>2012-03-25T11:56:10.000Z</time>
                <name>Position 188</name>
            </trkpt>
            <trkpt lon="11.634677388" lat="48.440960348">
                <ele>450.034424</ele>
                <time>2012-03-25T11:56:14.000Z</time>
                <name>Position 189</name>
            </trkpt>
            <trkpt lon="11.634478569" lat="48.440823555">
                <ele>450.515015</ele>
                <time>2012-03-25T11:56:18.000Z</time>
                <name>Position 190</name>
            </trkpt>
            <trkpt lon="11.634478569" lat="48.440823555">
                <ele>450.995605</ele>
                <time>2012-03-25T11:56:23.000Z</time>
                <name>Position 191</name>
            </trkpt>
            <trkpt lon="11.634319481" lat="48.440337572">
                <ele>451.476318</ele>
                <time>2012-03-25T11:56:27.000Z</time>
                <name>Position 192</name>
            </trkpt>
            <trkpt lon="11.63428369" lat="48.440145878">
                <ele>451.476318</ele>
                <time>2012-03-25T11:56:31.000Z</time>
                <name>Position 193</name>
            </trkpt>
            <trkpt lon="11.634264244" lat="48.43999668">
                <ele>451.957031</ele>
                <time>2012-03-25T11:56:34.000Z</time>
                <name>Position 194</name>
            </trkpt>
            <trkpt lon="11.634244798" lat="48.439266533">
                <ele>452.918213</ele>
                <time>2012-03-25T11:56:50.000Z</time>
                <name>Position 195</name>
            </trkpt>
            <trkpt lon="11.63410591" lat="48.439130662">
                <ele>454.360229</ele>
                <time>2012-03-25T11:56:54.000Z</time>
                <name>Position 196</name>
            </trkpt>
            <trkpt lon="11.634059893" lat="48.439114401">
                <ele>454.360229</ele>
                <time>2012-03-25T11:56:55.000Z</time>
                <name>Position 197</name>
            </trkpt>
            <trkpt lon="11.63383266" lat="48.439042568">
                <ele>455.321533</ele>
                <time>2012-03-25T11:56:59.000Z</time>
                <name>Position 198</name>
            </trkpt>
            <trkpt lon="11.633476764" lat="48.439042568">
                <ele>454.360229</ele>
                <time>2012-03-25T11:57:04.000Z</time>
                <name>Position 199</name>
            </trkpt>
            <trkpt lon="11.633124724" lat="48.439042568">
                <ele>452.918213</ele>
                <time>2012-03-25T11:57:08.000Z</time>
                <name>Position 200</name>
            </trkpt>
            <trkpt lon="11.632759022" lat="48.438929329">
                <ele>451.476318</ele>
                <time>2012-03-25T11:57:12.000Z</time>
                <name>Position 201</name>
            </trkpt>
            <trkpt lon="11.632355182" lat="48.438831093">
                <ele>450.034424</ele>
                <time>2012-03-25T11:57:16.000Z</time>
                <name>Position 202</name>
            </trkpt>
            <trkpt lon="11.632140437" lat="48.438778874">
                <ele>448.592407</ele>
                <time>2012-03-25T11:57:18.000Z</time>
                <name>Position 203</name>
            </trkpt>
            <trkpt lon="11.631668871" lat="48.438742161">
                <ele>448.111816</ele>
                <time>2012-03-25T11:57:22.000Z</time>
                <name>Position 204</name>
            </trkpt>
            <trkpt lon="11.631165203" lat="48.438790776">
                <ele>448.111816</ele>
                <time>2012-03-25T11:57:27.000Z</time>
                <name>Position 205</name>
            </trkpt>
            <trkpt lon="11.630888348" lat="48.438865291">
                <ele>447.630981</ele>
                <time>2012-03-25T11:57:30.000Z</time>
                <name>Position 206</name>
            </trkpt>
            <trkpt lon="11.630632952" lat="48.439031588">
                <ele>447.150269</ele>
                <time>2012-03-25T11:57:34.000Z</time>
                <name>Position 207</name>
            </trkpt>
            <trkpt lon="11.62971681" lat="48.439824348">
                <ele>448.111816</ele>
                <time>2012-03-25T11:57:51.000Z</time>
                <name>Position 208</name>
            </trkpt>
            <trkpt lon="11.629608767" lat="48.439905318">
                <ele>448.111816</ele>
                <time>2012-03-25T11:57:53.000Z</time>
                <name>Position 209</name>
            </trkpt>
            <trkpt lon="11.628479473" lat="48.440375626">
                <ele>447.150269</ele>
                <time>2012-03-25T11:58:10.000Z</time>
                <name>Position 210</name>
            </trkpt>
            <trkpt lon="11.627655113" lat="48.440521639">
                <ele>447.150269</ele>
                <time>2012-03-25T11:58:21.000Z</time>
                <name>Position 211</name>
            </trkpt>
            <trkpt lon="11.627150606" lat="48.440426504">
                <ele>446.669678</ele>
                <time>2012-03-25T11:58:28.000Z</time>
                <name>Position 212</name>
            </trkpt>
            <trkpt lon="11.626646519" lat="48.44022274">
                <ele>446.669678</ele>
                <time>2012-03-25T11:58:38.000Z</time>
                <name>Position 213</name>
            </trkpt>
            <trkpt lon="11.62593347" lat="48.439976647">
                <ele>445.708374</ele>
                <time>2012-03-25T11:58:48.000Z</time>
                <name>Position 214</name>
            </trkpt>
            <trkpt lon="11.624715831" lat="48.439922417">
                <ele>445.708374</ele>
                <time>2012-03-25T11:59:04.000Z</time>
                <name>Position 215</name>
            </trkpt>
            <trkpt lon="11.624324648" lat="48.439779757">
                <ele>445.708374</ele>
                <time>2012-03-25T11:59:10.000Z</time>
                <name>Position 216</name>
            </trkpt>
            <trkpt lon="11.623793319" lat="48.439430483">
                <ele>446.189087</ele>
                <time>2012-03-25T11:59:20.000Z</time>
                <name>Position 217</name>
            </trkpt>
            <trkpt lon="11.623529959" lat="48.439452611">
                <ele>446.189087</ele>
                <time>2012-03-25T11:59:25.000Z</time>
                <name>Position 218</name>
            </trkpt>
            <trkpt lon="11.623287639" lat="48.439767184">
                <ele>446.669678</ele>
                <time>2012-03-25T11:59:32.000Z</time>
                <name>Position 219</name>
            </trkpt>
            <trkpt lon="11.622977257" lat="48.440635381">
                <ele>448.592407</ele>
                <time>2012-03-25T11:59:51.000Z</time>
                <name>Position 220</name>
            </trkpt>
            <trkpt lon="11.623150762" lat="48.441365948">
                <ele>450.995605</ele>
                <time>2012-03-25T12:00:09.000Z</time>
                <name>Position 221</name>
            </trkpt>
            <trkpt lon="11.623293171" lat="48.441933654">
                <ele>450.515015</ele>
                <time>2012-03-25T12:00:22.000Z</time>
                <name>Position 222</name>
            </trkpt>
            <trkpt lon="11.623112876" lat="48.442272618">
                <ele>446.669678</ele>
                <time>2012-03-25T12:00:28.000Z</time>
                <name>Position 223</name>
            </trkpt>
            <trkpt lon="11.622975748" lat="48.442379236">
                <ele>446.189087</ele>
                <time>2012-03-25T12:00:30.000Z</time>
                <name>Position 224</name>
            </trkpt>
            <trkpt lon="11.622401923" lat="48.442949373">
                <ele>445.708374</ele>
                <time>2012-03-25T12:00:43.000Z</time>
                <name>Position 225</name>
            </trkpt>
            <trkpt lon="11.622363366" lat="48.443048531">
                <ele>445.708374</ele>
                <time>2012-03-25T12:00:45.000Z</time>
                <name>Position 226</name>
            </trkpt>
            <trkpt lon="11.622034963" lat="48.444065424">
                <ele>445.708374</ele>
                <time>2012-03-25T12:01:06.000Z</time>
                <name>Position 227</name>
            </trkpt>
            <trkpt lon="11.621904373" lat="48.444428444">
                <ele>445.708374</ele>
                <time>2012-03-25T12:01:14.000Z</time>
                <name>Position 228</name>
            </trkpt>
            <trkpt lon="11.621402884" lat="48.444623239">
                <ele>446.189087</ele>
                <time>2012-03-25T12:01:24.000Z</time>
                <name>Position 229</name>
            </trkpt>
            <trkpt lon="11.621338679" lat="48.444609744">
                <ele>446.189087</ele>
                <time>2012-03-25T12:01:25.000Z</time>
                <name>Position 230</name>
            </trkpt>
            <trkpt lon="11.61992725" lat="48.444439257">
                <ele>446.669678</ele>
                <time>2012-03-25T12:01:46.000Z</time>
                <name>Position 231</name>
            </trkpt>
            <trkpt lon="11.619353341" lat="48.444494996">
                <ele>446.669678</ele>
                <time>2012-03-25T12:01:55.000Z</time>
                <name>Position 232</name>
            </trkpt>
            <trkpt lon="11.618927708" lat="48.444662215">
                <ele>447.150269</ele>
                <time>2012-03-25T12:02:03.000Z</time>
                <name>Position 233</name>
            </trkpt>
            <trkpt lon="11.617897656" lat="48.445166051">
                <ele>448.111816</ele>
                <time>2012-03-25T12:02:22.000Z</time>
                <name>Position 234</name>
            </trkpt>
            <trkpt lon="11.617390551" lat="48.44543729">
                <ele>447.630981</ele>
                <time>2012-03-25T12:02:32.000Z</time>
                <name>Position 235</name>
            </trkpt>
            <trkpt lon="11.616592174" lat="48.445883458">
                <ele>449.072998</ele>
                <time>2012-03-25T12:02:48.000Z</time>
                <name>Position 236</name>
            </trkpt>
            <trkpt lon="11.615515267" lat="48.446498439">
                <ele>449.553711</ele>
                <time>2012-03-25T12:03:11.000Z</time>
                <name>Position 237</name>
            </trkpt>
            <trkpt lon="11.614618236" lat="48.4470757">
                <ele>449.072998</ele>
                <time>2012-03-25T12:03:34.000Z</time>
                <name>Position 238</name>
            </trkpt>
            <trkpt lon="11.61380142" lat="48.447323302">
                <ele>448.592407</ele>
                <time>2012-03-25T12:03:51.000Z</time>
                <name>Position 239</name>
            </trkpt>
            <trkpt lon="11.61293691" lat="48.447613483">
                <ele>450.515015</ele>
                <time>2012-03-25T12:04:08.000Z</time>
                <name>Position 240</name>
            </trkpt>
            <trkpt lon="11.612233166" lat="48.448161744">
                <ele>451.476318</ele>
                <time>2012-03-25T12:04:28.000Z</time>
                <name>Position 241</name>
            </trkpt>
            <trkpt lon="11.611508382" lat="48.44890438">
                <ele>451.957031</ele>
                <time>2012-03-25T12:04:52.000Z</time>
                <name>Position 242</name>
            </trkpt>
            <trkpt lon="11.61078997" lat="48.449719688">
                <ele>451.476318</ele>
                <time>2012-03-25T12:05:18.000Z</time>
                <name>Position 243</name>
            </trkpt>
            <trkpt lon="11.610337934" lat="48.450473472">
                <ele>452.918213</ele>
                <time>2012-03-25T12:05:40.000Z</time>
                <name>Position 244</name>
            </trkpt>
            <trkpt lon="11.609708117" lat="48.450804139">
                <ele>452.437622</ele>
                <time>2012-03-25T12:05:55.000Z</time>
                <name>Position 245</name>
            </trkpt>
            <trkpt lon="11.609010743" lat="48.451252822">
                <ele>453.398926</ele>
                <time>2012-03-25T12:06:13.000Z</time>
                <name>Position 246</name>
            </trkpt>
            <trkpt lon="11.608580835" lat="48.451615004">
                <ele>455.321533</ele>
                <time>2012-03-25T12:06:28.000Z</time>
                <name>Position 247</name>
            </trkpt>
            <trkpt lon="11.608202979" lat="48.451493047">
                <ele>454.84082</ele>
                <time>2012-03-25T12:06:36.000Z</time>
                <name>Position 248</name>
            </trkpt>
            <trkpt lon="11.607936183" lat="48.451386681">
                <ele>455.321533</ele>
                <time>2012-03-25T12:06:41.000Z</time>
                <name>Position 249</name>
            </trkpt>
            <trkpt lon="11.607530667" lat="48.451340497">
                <ele>455.802246</ele>
                <time>2012-03-25T12:06:48.000Z</time>
                <name>Position 250</name>
            </trkpt>
            <trkpt lon="11.607158929" lat="48.451353405">
                <ele>456.282959</ele>
                <time>2012-03-25T12:06:55.000Z</time>
                <name>Position 251</name>
            </trkpt>
            <trkpt lon="11.607098747" lat="48.451258186">
                <ele>456.282959</ele>
                <time>2012-03-25T12:06:59.000Z</time>
                <name>Position 252</name>
            </trkpt>
            <trkpt lon="11.606636653" lat="48.451221138">
                <ele>456.76355</ele>
                <time>2012-03-25T12:07:05.000Z</time>
                <name>Position 253</name>
            </trkpt>
            <trkpt lon="11.606348651" lat="48.451370588">
                <ele>456.76355</ele>
                <time>2012-03-25T12:07:10.000Z</time>
                <name>Position 254</name>
            </trkpt>
            <trkpt lon="11.605488081" lat="48.451905688">
                <ele>457.244263</ele>
                <time>2012-03-25T12:07:26.000Z</time>
                <name>Position 255</name>
            </trkpt>
            <trkpt lon="11.604989525" lat="48.452703226">
                <ele>456.76355</ele>
                <time>2012-03-25T12:07:45.000Z</time>
                <name>Position 256</name>
            </trkpt>
            <trkpt lon="11.604490215" lat="48.453690866">
                <ele>456.76355</ele>
                <time>2012-03-25T12:08:08.000Z</time>
                <name>Position 257</name>
            </trkpt>
            <trkpt lon="11.60404698" lat="48.454346415">
                <ele>456.282959</ele>
                <time>2012-03-25T12:08:23.000Z</time>
                <name>Position 258</name>
            </trkpt>
            <trkpt lon="11.60318641" lat="48.455044962">
                <ele>457.244263</ele>
                <time>2012-03-25T12:08:42.000Z</time>
                <name>Position 259</name>
            </trkpt>
            <trkpt lon="11.602166165" lat="48.455715599">
                <ele>458.205566</ele>
                <time>2012-03-25T12:09:02.000Z</time>
                <name>Position 260</name>
            </trkpt>
            <trkpt lon="11.601043409" lat="48.456311971">
                <ele>457.724976</ele>
                <time>2012-03-25T12:09:22.000Z</time>
                <name>Position 261</name>
            </trkpt>
            <trkpt lon="11.600581482" lat="48.456570134">
                <ele>458.205566</ele>
                <time>2012-03-25T12:09:30.000Z</time>
                <name>Position 262</name>
            </trkpt>
            <trkpt lon="11.600224078" lat="48.456626208">
                <ele>458.205566</ele>
                <time>2012-03-25T12:09:35.000Z</time>
                <name>Position 263</name>
            </trkpt>
            <trkpt lon="11.599868601" lat="48.456661999">
                <ele>458.205566</ele>
                <time>2012-03-25T12:09:40.000Z</time>
                <name>Position 264</name>
            </trkpt>
            <trkpt lon="11.599594848" lat="48.456698544">
                <ele>458.205566</ele>
                <time>2012-03-25T12:09:44.000Z</time>
                <name>Position 265</name>
            </trkpt>
            <trkpt lon="11.599303745" lat="48.456858052">
                <ele>458.205566</ele>
                <time>2012-03-25T12:09:49.000Z</time>
                <name>Position 266</name>
            </trkpt>
            <trkpt lon="11.598663619" lat="48.457480157">
                <ele>458.205566</ele>
                <time>2012-03-25T12:10:05.000Z</time>
                <name>Position 267</name>
            </trkpt>
            <trkpt lon="11.597660724" lat="48.457952393">
                <ele>460.128174</ele>
                <time>2012-03-25T12:10:24.000Z</time>
                <name>Position 268</name>
            </trkpt>
            <trkpt lon="11.596448198" lat="48.458478777">
                <ele>461.089478</ele>
                <time>2012-03-25T12:10:47.000Z</time>
                <name>Position 269</name>
            </trkpt>
            <trkpt lon="11.595302979" lat="48.45898605">
                <ele>461.57019</ele>
                <time>2012-03-25T12:11:08.000Z</time>
                <name>Position 270</name>
            </trkpt>
            <trkpt lon="11.594329337" lat="48.459579321">
                <ele>463.492798</ele>
                <time>2012-03-25T12:11:28.000Z</time>
                <name>Position 271</name>
            </trkpt>
            <trkpt lon="11.593327699" lat="48.460088857">
                <ele>464.454102</ele>
                <time>2012-03-25T12:11:48.000Z</time>
                <name>Position 272</name>
            </trkpt>
            <trkpt lon="11.592710624" lat="48.460364034">
                <ele>464.934814</ele>
                <time>2012-03-25T12:12:00.000Z</time>
                <name>Position 273</name>
            </trkpt>
            <trkpt lon="11.591903111" lat="48.460877342">
                <ele>466.376709</ele>
                <time>2012-03-25T12:12:18.000Z</time>
                <name>Position 274</name>
            </trkpt>
            <trkpt lon="11.591102388" lat="48.46150456">
                <ele>466.376709</ele>
                <time>2012-03-25T12:12:37.000Z</time>
                <name>Position 275</name>
            </trkpt>
            <trkpt lon="11.590088513" lat="48.462071512">
                <ele>466.376709</ele>
                <time>2012-03-25T12:12:55.000Z</time>
                <name>Position 276</name>
            </trkpt>
            <trkpt lon="11.58964687" lat="48.462318107">
                <ele>466.376709</ele>
                <time>2012-03-25T12:13:07.000Z</time>
                <name>Position 277</name>
            </trkpt>
            <trkpt lon="11.58964687" lat="48.462318107">
                <ele>467.338135</ele>
                <time>2012-03-25T12:13:10.000Z</time>
                <name>Position 278</name>
            </trkpt>
            <trkpt lon="11.588686556" lat="48.462860249">
                <ele>467.338135</ele>
                <time>2012-03-25T12:13:15.000Z</time>
                <name>Position 279</name>
            </trkpt>
            <trkpt lon="11.588727711" lat="48.462837534">
                <ele>467.338135</ele>
                <time>2012-03-25T12:13:18.000Z</time>
                <name>Position 280</name>
            </trkpt>
            <trkpt lon="11.588187497" lat="48.463134672">
                <ele>470.221924</ele>
                <time>2012-03-25T12:13:31.000Z</time>
                <name>Position 281</name>
            </trkpt>
            <trkpt lon="11.587717272" lat="48.463393338">
                <ele>473.58667</ele>
                <time>2012-03-25T12:13:44.000Z</time>
                <name>Position 282</name>
            </trkpt>
            <trkpt lon="11.58726071" lat="48.463659128">
                <ele>475.028687</ele>
                <time>2012-03-25T12:14:00.000Z</time>
                <name>Position 283</name>
            </trkpt>
            <trkpt lon="11.586789228" lat="48.463939251">
                <ele>477.431885</ele>
                <time>2012-03-25T12:14:19.000Z</time>
                <name>Position 284</name>
            </trkpt>
            <trkpt lon="11.586349597" lat="48.464200599">
                <ele>480.315918</ele>
                <time>2012-03-25T12:14:36.000Z</time>
                <name>Position 285</name>
            </trkpt>
            <trkpt lon="11.585901752" lat="48.464519866">
                <ele>483.68042</ele>
                <time>2012-03-25T12:14:55.000Z</time>
                <name>Position 286</name>
            </trkpt>
            <trkpt lon="11.58555516" lat="48.464866709">
                <ele>486.08374</ele>
                <time>2012-03-25T12:15:13.000Z</time>
                <name>Position 287</name>
            </trkpt>
            <trkpt lon="11.585223824" lat="48.46523107">
                <ele>489.448364</ele>
                <time>2012-03-25T12:15:31.000Z</time>
                <name>Position 288</name>
            </trkpt>
            <trkpt lon="11.584977731" lat="48.465582775">
                <ele>489.448364</ele>
                <time>2012-03-25T12:15:48.000Z</time>
                <name>Position 289</name>
            </trkpt>
            <trkpt lon="11.584610771" lat="48.465850409">
                <ele>491.370972</ele>
                <time>2012-03-25T12:16:03.000Z</time>
                <name>Position 290</name>
            </trkpt>
            <trkpt lon="11.584068881" lat="48.465997092">
                <ele>492.812988</ele>
                <time>2012-03-25T12:16:19.000Z</time>
                <name>Position 291</name>
            </trkpt>
            <trkpt lon="11.583964778" lat="48.466022406">
                <ele>494.255005</ele>
                <time>2012-03-25T12:16:22.000Z</time>
                <name>Position 292</name>
            </trkpt>
            <trkpt lon="11.583343511" lat="48.466323903">
                <ele>496.177734</ele>
                <time>2012-03-25T12:16:41.000Z</time>
                <name>Position 293</name>
            </trkpt>
            <trkpt lon="11.582938917" lat="48.466531355">
                <ele>496.658325</ele>
                <time>2012-03-25T12:16:52.000Z</time>
                <name>Position 294</name>
            </trkpt>
            <trkpt lon="11.582306419" lat="48.46672833">
                <ele>498.100342</ele>
                <time>2012-03-25T12:17:08.000Z</time>
                <name>Position 295</name>
            </trkpt>
            <trkpt lon="11.581718931" lat="48.466956569">
                <ele>499.542236</ele>
                <time>2012-03-25T12:17:25.000Z</time>
                <name>Position 296</name>
            </trkpt>
            <trkpt lon="11.580898175" lat="48.467313219">
                <ele>500.984131</ele>
                <time>2012-03-25T12:17:45.000Z</time>
                <name>Position 297</name>
            </trkpt>
            <trkpt lon="11.579929562" lat="48.467582446">
                <ele>499.542236</ele>
                <time>2012-03-25T12:18:05.000Z</time>
                <name>Position 298</name>
            </trkpt>
            <trkpt lon="11.579311062" lat="48.467798699">
                <ele>502.426147</ele>
                <time>2012-03-25T12:18:20.000Z</time>
                <name>Position 299</name>
            </trkpt>
            <trkpt lon="11.578688873" lat="48.468154343">
                <ele>503.868164</ele>
                <time>2012-03-25T12:18:38.000Z</time>
                <name>Position 300</name>
            </trkpt>
            <trkpt lon="11.578148324" lat="48.468591627">
                <ele>505.790894</ele>
                <time>2012-03-25T12:18:56.000Z</time>
                <name>Position 301</name>
            </trkpt>
            <trkpt lon="11.577509791" lat="48.469142066">
                <ele>507.232788</ele>
                <time>2012-03-25T12:19:17.000Z</time>
                <name>Position 302</name>
            </trkpt>
            <trkpt lon="11.576797329" lat="48.469807003">
                <ele>506.752075</ele>
                <time>2012-03-25T12:19:39.000Z</time>
                <name>Position 303</name>
            </trkpt>
            <trkpt lon="11.575952852" lat="48.470595237">
                <ele>505.310181</ele>
                <time>2012-03-25T12:20:00.000Z</time>
                <name>Position 304</name>
            </trkpt>
            <trkpt lon="11.575906919" lat="48.470638068">
                <ele>504.829468</ele>
                <time>2012-03-25T12:20:01.000Z</time>
                <name>Position 305</name>
            </trkpt>
            <trkpt lon="11.575230081" lat="48.471230334">
                <ele>505.310181</ele>
                <time>2012-03-25T12:20:18.000Z</time>
                <name>Position 306</name>
            </trkpt>
            <trkpt lon="11.574572269" lat="48.471754035">
                <ele>506.752075</ele>
                <time>2012-03-25T12:20:35.000Z</time>
                <name>Position 307</name>
            </trkpt>
            <trkpt lon="11.573801385" lat="48.472202802">
                <ele>509.155396</ele>
                <time>2012-03-25T12:20:54.000Z</time>
                <name>Position 308</name>
            </trkpt>
            <trkpt lon="11.573043913" lat="48.472521398">
                <ele>511.078003</ele>
                <time>2012-03-25T12:21:10.000Z</time>
                <name>Position 309</name>
            </trkpt>
            <trkpt lon="11.572036408" lat="48.472962622">
                <ele>509.636108</ele>
                <time>2012-03-25T12:21:28.000Z</time>
                <name>Position 310</name>
            </trkpt>
            <trkpt lon="11.571277175" lat="48.473405605">
                <ele>510.59729</ele>
                <time>2012-03-25T12:21:44.000Z</time>
                <name>Position 311</name>
            </trkpt>
            <trkpt lon="11.571206935" lat="48.473449107">
                <ele>511.558716</ele>
                <time>2012-03-25T12:21:46.000Z</time>
                <name>Position 312</name>
            </trkpt>
            <trkpt lon="11.570904013" lat="48.473636694">
                <ele>512.039429</ele>
                <time>2012-03-25T12:21:56.000Z</time>
                <name>Position 313</name>
            </trkpt>
            <trkpt lon="11.570288027" lat="48.473973814">
                <ele>513.962036</ele>
                <time>2012-03-25T12:22:11.000Z</time>
                <name>Position 314</name>
            </trkpt>
            <trkpt lon="11.569427624" lat="48.474283526">
                <ele>515.404053</ele>
                <time>2012-03-25T12:22:31.000Z</time>
                <name>Position 315</name>
            </trkpt>
            <trkpt lon="11.568546183" lat="48.474426521">
                <ele>517.807251</ele>
                <time>2012-03-25T12:22:51.000Z</time>
                <name>Position 316</name>
            </trkpt>
            <trkpt lon="11.568315597" lat="48.474442447">
                <ele>519.729858</ele>
                <time>2012-03-25T12:22:56.000Z</time>
                <name>Position 317</name>
            </trkpt>
            <trkpt lon="11.567482939" lat="48.474472705">
                <ele>521.171997</ele>
                <time>2012-03-25T12:23:13.000Z</time>
                <name>Position 318</name>
            </trkpt>
            <trkpt lon="11.567319492" lat="48.474488296">
                <ele>520.691284</ele>
                <time>2012-03-25T12:23:16.000Z</time>
                <name>Position 319</name>
            </trkpt>
            <trkpt lon="11.566798305" lat="48.474753667">
                <ele>519.729858</ele>
                <time>2012-03-25T12:23:25.000Z</time>
                <name>Position 320</name>
            </trkpt>
            <trkpt lon="11.566663273" lat="48.474813681">
                <ele>519.249268</ele>
                <time>2012-03-25T12:23:27.000Z</time>
                <name>Position 321</name>
            </trkpt>
            <trkpt lon="11.5663487" lat="48.474854752">
                <ele>518.287842</ele>
                <time>2012-03-25T12:23:31.000Z</time>
                <name>Position 322</name>
            </trkpt>
            <trkpt lon="11.566217439" lat="48.47507461">
                <ele>516.845947</ele>
                <time>2012-03-25T12:23:36.000Z</time>
                <name>Position 323</name>
            </trkpt>
            <trkpt lon="11.566408547" lat="48.476101225">
                <ele>517.32666</ele>
                <time>2012-03-25T12:23:56.000Z</time>
                <name>Position 324</name>
            </trkpt>
            <trkpt lon="11.566329002" lat="48.476443291">
                <ele>518.768555</ele>
                <time>2012-03-25T12:24:05.000Z</time>
                <name>Position 325</name>
            </trkpt>
            <trkpt lon="11.565748807" lat="48.476705477">
                <ele>521.171997</ele>
                <time>2012-03-25T12:24:18.000Z</time>
                <name>Position 326</name>
            </trkpt>
            <trkpt lon="11.564978762" lat="48.476825003">
                <ele>521.652588</ele>
                <time>2012-03-25T12:24:33.000Z</time>
                <name>Position 327</name>
            </trkpt>
            <trkpt lon="11.564120706" lat="48.477075286">
                <ele>519.249268</ele>
                <time>2012-03-25T12:24:45.000Z</time>
                <name>Position 328</name>
            </trkpt>
            <trkpt lon="11.563606979" lat="48.477150472">
                <ele>518.287842</ele>
                <time>2012-03-25T12:24:51.000Z</time>
                <name>Position 329</name>
            </trkpt>
            <trkpt lon="11.563343368" lat="48.477361612">
                <ele>514.92334</ele>
                <time>2012-03-25T12:24:56.000Z</time>
                <name>Position 330</name>
            </trkpt>
            <trkpt lon="11.563255526" lat="48.477512402">
                <ele>513.962036</ele>
                <time>2012-03-25T12:24:58.000Z</time>
                <name>Position 331</name>
            </trkpt>
            <trkpt lon="11.562883453" lat="48.477745671">
                <ele>510.59729</ele>
                <time>2012-03-25T12:25:02.000Z</time>
                <name>Position 332</name>
            </trkpt>
            <trkpt lon="11.562636187" lat="48.47774148">
                <ele>510.59729</ele>
                <time>2012-03-25T12:25:04.000Z</time>
                <name>Position 333</name>
            </trkpt>
            <trkpt lon="11.562032355" lat="48.47771164">
                <ele>510.116699</ele>
                <time>2012-03-25T12:25:09.000Z</time>
                <name>Position 334</name>
            </trkpt>
            <trkpt lon="11.561428858" lat="48.477681885">
                <ele>509.636108</ele>
                <time>2012-03-25T12:25:16.000Z</time>
                <name>Position 335</name>
            </trkpt>
            <trkpt lon="11.559818275" lat="48.477597227">
                <ele>509.155396</ele>
                <time>2012-03-25T12:25:35.000Z</time>
                <name>Position 336</name>
            </trkpt>
            <trkpt lon="11.559505463" lat="48.477580547">
                <ele>509.636108</ele>
                <time>2012-03-25T12:25:39.000Z</time>
                <name>Position 337</name>
            </trkpt>
            <trkpt lon="11.559052337" lat="48.477643076">
                <ele>509.155396</ele>
                <time>2012-03-25T12:25:45.000Z</time>
                <name>Position 338</name>
            </trkpt>
            <trkpt lon="11.558333086" lat="48.477951614">
                <ele>509.155396</ele>
                <time>2012-03-25T12:25:57.000Z</time>
                <name>Position 339</name>
            </trkpt>
            <trkpt lon="11.557753896" lat="48.47849627">
                <ele>512.52002</ele>
                <time>2012-03-25T12:26:16.000Z</time>
                <name>Position 340</name>
            </trkpt>
            <trkpt lon="11.557206893" lat="48.478759965">
                <ele>516.365234</ele>
                <time>2012-03-25T12:26:33.000Z</time>
                <name>Position 341</name>
            </trkpt>
            <trkpt lon="11.556575987" lat="48.47896968">
                <ele>516.845947</ele>
                <time>2012-03-25T12:26:49.000Z</time>
                <name>Position 342</name>
            </trkpt>
            <trkpt lon="11.55536212" lat="48.479153411">
                <ele>514.92334</ele>
                <time>2012-03-25T12:27:06.000Z</time>
                <name>Position 343</name>
            </trkpt>
            <trkpt lon="11.554449415" lat="48.479268746">
                <ele>511.558716</ele>
                <time>2012-03-25T12:27:16.000Z</time>
                <name>Position 344</name>
            </trkpt>
            <trkpt lon="11.554243891" lat="48.479292048">
                <ele>510.59729</ele>
                <time>2012-03-25T12:27:18.000Z</time>
                <name>Position 345</name>
            </trkpt>
            <trkpt lon="11.552874874" lat="48.47944703">
                <ele>507.232788</ele>
                <time>2012-03-25T12:27:30.000Z</time>
                <name>Position 346</name>
            </trkpt>
            <trkpt lon="11.552636661" lat="48.479481731">
                <ele>506.752075</ele>
                <time>2012-03-25T12:27:32.000Z</time>
                <name>Position 347</name>
            </trkpt>
            <trkpt lon="11.551860999" lat="48.479703348">
                <ele>504.829468</ele>
                <time>2012-03-25T12:27:40.000Z</time>
                <name>Position 348</name>
            </trkpt>
            <trkpt lon="11.551475767" lat="48.479813403">
                <ele>503.387451</ele>
                <time>2012-03-25T12:27:47.000Z</time>
                <name>Position 349</name>
            </trkpt>
            <trkpt lon="11.550369691" lat="48.479915662">
                <ele>501.945557</ele>
                <time>2012-03-25T12:28:00.000Z</time>
                <name>Position 350</name>
            </trkpt>
            <trkpt lon="11.549196392" lat="48.480071062">
                <ele>500.984131</ele>
                <time>2012-03-25T12:28:14.000Z</time>
                <name>Position 351</name>
            </trkpt>
            <trkpt lon="11.548188217" lat="48.480228307">
                <ele>502.906738</ele>
                <time>2012-03-25T12:28:30.000Z</time>
                <name>Position 352</name>
            </trkpt>
            <trkpt lon="11.546925651" lat="48.480279939">
                <ele>500.022949</ele>
                <time>2012-03-25T12:28:45.000Z</time>
                <name>Position 353</name>
            </trkpt>
            <trkpt lon="11.546128951" lat="48.480396783">
                <ele>496.658325</ele>
                <time>2012-03-25T12:28:52.000Z</time>
                <name>Position 354</name>
            </trkpt>
            <trkpt lon="11.545312721" lat="48.480524942">
                <ele>493.293579</ele>
                <time>2012-03-25T12:28:58.000Z</time>
                <name>Position 355</name>
            </trkpt>
            <trkpt lon="11.544600679" lat="48.480636757">
                <ele>489.929077</ele>
                <time>2012-03-25T12:29:03.000Z</time>
                <name>Position 356</name>
            </trkpt>
            <trkpt lon="11.544312257" lat="48.480682019">
                <ele>488.967773</ele>
                <time>2012-03-25T12:29:05.000Z</time>
                <name>Position 357</name>
            </trkpt>
            <trkpt lon="11.543657547" lat="48.480920903">
                <ele>485.603027</ele>
                <time>2012-03-25T12:29:10.000Z</time>
                <name>Position 358</name>
            </trkpt>
            <trkpt lon="11.543382369" lat="48.480998017">
                <ele>484.641846</ele>
                <time>2012-03-25T12:29:12.000Z</time>
                <name>Position 359</name>
            </trkpt>
            <trkpt lon="11.542684911" lat="48.481166409">
                <ele>481.277222</ele>
                <time>2012-03-25T12:29:17.000Z</time>
                <name>Position 360</name>
            </trkpt>
            <trkpt lon="11.542547029" lat="48.481199685">
                <ele>482.238525</ele>
                <time>2012-03-25T12:29:18.000Z</time>
                <name>Position 361</name>
            </trkpt>
            <trkpt lon="11.541858958" lat="48.481269842">
                <ele>478.873901</ele>
                <time>2012-03-25T12:29:23.000Z</time>
                <name>Position 362</name>
            </trkpt>
            <trkpt lon="11.541590318" lat="48.481281074">
                <ele>477.912476</ele>
                <time>2012-03-25T12:29:25.000Z</time>
                <name>Position 363</name>
            </trkpt>
            <trkpt lon="11.540573426" lat="48.481246708">
                <ele>474.547974</ele>
                <time>2012-03-25T12:29:33.000Z</time>
                <name>Position 364</name>
            </trkpt>
            <trkpt lon="11.539714364" lat="48.48119298">
                <ele>472.144653</ele>
                <time>2012-03-25T12:29:40.000Z</time>
                <name>Position 365</name>
            </trkpt>
            <trkpt lon="11.539585199" lat="48.481184933">
                <ele>471.66394</ele>
                <time>2012-03-25T12:29:41.000Z</time>
                <name>Position 366</name>
            </trkpt>
            <trkpt lon="11.538876845" lat="48.481316864">
                <ele>470.221924</ele>
                <time>2012-03-25T12:29:47.000Z</time>
                <name>Position 367</name>
            </trkpt>
            <trkpt lon="11.537324684" lat="48.48204257">
                <ele>468.780029</ele>
                <time>2012-03-25T12:30:04.000Z</time>
                <name>Position 368</name>
            </trkpt>
            <trkpt lon="11.535601448" lat="48.482876318">
                <ele>467.338135</ele>
                <time>2012-03-25T12:30:27.000Z</time>
                <name>Position 369</name>
            </trkpt>
            <trkpt lon="11.534582796" lat="48.483047979">
                <ele>467.818726</ele>
                <time>2012-03-25T12:30:41.000Z</time>
                <name>Position 370</name>
            </trkpt>
            <trkpt lon="11.532870289" lat="48.483118135">
                <ele>465.415527</ele>
                <time>2012-03-25T12:31:00.000Z</time>
                <name>Position 371</name>
            </trkpt>
            <trkpt lon="11.531784246" lat="48.483389709">
                <ele>462.531372</ele>
                <time>2012-03-25T12:31:11.000Z</time>
                <name>Position 372</name>
            </trkpt>
            <trkpt lon="11.530044582" lat="48.483824646">
                <ele>462.531372</ele>
                <time>2012-03-25T12:31:31.000Z</time>
                <name>Position 373</name>
            </trkpt>
            <trkpt lon="11.528865583" lat="48.483614428">
                <ele>463.492798</ele>
                <time>2012-03-25T12:31:47.000Z</time>
                <name>Position 374</name>
            </trkpt>
            <trkpt lon="11.527374024" lat="48.483298011">
                <ele>464.454102</ele>
                <time>2012-03-25T12:32:09.000Z</time>
                <name>Position 375</name>
            </trkpt>
            <trkpt lon="11.525928313" lat="48.483184101">
                <ele>463.492798</ele>
                <time>2012-03-25T12:32:26.000Z</time>
                <name>Position 376</name>
            </trkpt>
            <trkpt lon="11.524545802" lat="48.483004728">
                <ele>464.934814</ele>
                <time>2012-03-25T12:32:45.000Z</time>
                <name>Position 377</name>
            </trkpt>
            <trkpt lon="11.523407372" lat="48.48280021">
                <ele>463.012085</ele>
                <time>2012-03-25T12:33:00.000Z</time>
                <name>Position 378</name>
            </trkpt>
            <trkpt lon="11.522135334" lat="48.482621005">
                <ele>462.531372</ele>
                <time>2012-03-25T12:33:16.000Z</time>
                <name>Position 379</name>
            </trkpt>
            <trkpt lon="11.520857345" lat="48.482385138">
                <ele>457.724976</ele>
                <time>2012-03-25T12:33:29.000Z</time>
                <name>Position 380</name>
            </trkpt>
            <trkpt lon="11.520627094" lat="48.482341468">
                <ele>457.244263</ele>
                <time>2012-03-25T12:33:31.000Z</time>
                <name>Position 381</name>
            </trkpt>
            <trkpt lon="11.51927283" lat="48.482384887">
                <ele>455.802246</ele>
                <time>2012-03-25T12:33:43.000Z</time>
                <name>Position 382</name>
            </trkpt>
            <trkpt lon="11.517730309" lat="48.482740698">
                <ele>454.84082</ele>
                <time>2012-03-25T12:34:00.000Z</time>
                <name>Position 383</name>
            </trkpt>
            <trkpt lon="11.515921326" lat="48.48319374">
                <ele>453.879639</ele>
                <time>2012-03-25T12:34:23.000Z</time>
                <name>Position 384</name>
            </trkpt>
            <trkpt lon="11.51451367" lat="48.483426757">
                <ele>453.398926</ele>
                <time>2012-03-25T12:34:42.000Z</time>
                <name>Position 385</name>
            </trkpt>
            <trkpt lon="11.512866206" lat="48.483548798">
                <ele>451.957031</ele>
                <time>2012-03-25T12:35:03.000Z</time>
                <name>Position 386</name>
            </trkpt>
            <trkpt lon="11.511736074" lat="48.483799417">
                <ele>452.437622</ele>
                <time>2012-03-25T12:35:19.000Z</time>
                <name>Position 387</name>
            </trkpt>
            <trkpt lon="11.511001065" lat="48.48393403">
                <ele>452.437622</ele>
                <time>2012-03-25T12:35:29.000Z</time>
                <name>Position 388</name>
            </trkpt>
            <trkpt lon="11.510732174" lat="48.484125137">
                <ele>451.957031</ele>
                <time>2012-03-25T12:35:33.000Z</time>
                <name>Position 389</name>
            </trkpt>
            <trkpt lon="11.510732174" lat="48.484125137">
                <ele>452.437622</ele>
                <time>2012-03-25T12:35:45.000Z</time>
                <name>Position 390</name>
            </trkpt>
            <trkpt lon="11.510623042" lat="48.484140728">
                <ele>452.918213</ele>
                <time>2012-03-25T12:36:04.000Z</time>
                <name>Position 391</name>
            </trkpt>
            <trkpt lon="11.510758074" lat="48.484614138">
                <ele>454.84082</ele>
                <time>2012-03-25T12:36:16.000Z</time>
                <name>Position 392</name>
            </trkpt>
            <trkpt lon="11.510958737" lat="48.48515125">
                <ele>457.244263</ele>
                <time>2012-03-25T12:36:31.000Z</time>
                <name>Position 393</name>
            </trkpt>
            <trkpt lon="11.511165015" lat="48.485884499">
                <ele>457.244263</ele>
                <time>2012-03-25T12:36:52.000Z</time>
                <name>Position 394</name>
            </trkpt>
            <trkpt lon="11.511266436" lat="48.486319687">
                <ele>456.282959</ele>
                <time>2012-03-25T12:37:03.000Z</time>
                <name>Position 395</name>
            </trkpt>
            <trkpt lon="11.511095697" lat="48.486451954">
                <ele>456.282959</ele>
                <time>2012-03-25T12:37:08.000Z</time>
                <name>Position 396</name>
            </trkpt>
            <trkpt lon="11.510867961" lat="48.486596374">
                <ele>456.282959</ele>
                <time>2012-03-25T12:37:13.000Z</time>
                <name>Position 397</name>
            </trkpt>
            <trkpt lon="11.51086092" lat="48.486614227">
                <ele>455.802246</ele>
                <time>2012-03-25T12:37:15.000Z</time>
                <name>Position 398</name>
            </trkpt>
            <trkpt lon="11.510563027" lat="48.486630823">
                <ele>456.282959</ele>
                <time>2012-03-25T12:37:19.000Z</time>
                <name>Position 399</name>
            </trkpt>
            <trkpt lon="11.510215681" lat="48.486659238">
                <ele>453.879639</ele>
                <time>2012-03-25T12:37:23.000Z</time>
                <name>Position 400</name>
            </trkpt>
            <trkpt lon="11.509335246" lat="48.4866786">
                <ele>450.515015</ele>
                <time>2012-03-25T12:37:31.000Z</time>
                <name>Position 401</name>
            </trkpt>
            <trkpt lon="11.509087477" lat="48.4866786">
                <ele>449.553711</ele>
                <time>2012-03-25T12:37:33.000Z</time>
                <name>Position 402</name>
            </trkpt>
            <trkpt lon="11.507876208" lat="48.486684887">
                <ele>446.669678</ele>
                <time>2012-03-25T12:37:43.000Z</time>
                <name>Position 403</name>
            </trkpt>
            <trkpt lon="11.506053647" lat="48.486724533">
                <ele>445.227661</ele>
                <time>2012-03-25T12:38:01.000Z</time>
                <name>Position 404</name>
            </trkpt>
            <trkpt lon="11.504111979" lat="48.48695755">
                <ele>444.266479</ele>
                <time>2012-03-25T12:38:23.000Z</time>
                <name>Position 405</name>
            </trkpt>
            <trkpt lon="11.503136158" lat="48.486871719">
                <ele>446.669678</ele>
                <time>2012-03-25T12:38:39.000Z</time>
                <name>Position 406</name>
            </trkpt>
            <trkpt lon="11.502218843" lat="48.48663602">
                <ele>447.630981</ele>
                <time>2012-03-25T12:38:51.000Z</time>
                <name>Position 407</name>
            </trkpt>
            <trkpt lon="11.501739481" lat="48.486875994">
                <ele>448.592407</ele>
                <time>2012-03-25T12:39:01.000Z</time>
                <name>Position 408</name>
            </trkpt>
            <trkpt lon="11.501509147" lat="48.48737698">
                <ele>452.437622</ele>
                <time>2012-03-25T12:39:17.000Z</time>
                <name>Position 409</name>
            </trkpt>
            <trkpt lon="11.501393979" lat="48.487540931">
                <ele>454.360229</ele>
                <time>2012-03-25T12:39:24.000Z</time>
                <name>Position 410</name>
            </trkpt>
            <trkpt lon="11.501157023" lat="48.487873524">
                <ele>457.724976</ele>
                <time>2012-03-25T12:39:38.000Z</time>
                <name>Position 411</name>
            </trkpt>
            <trkpt lon="11.501046801" lat="48.488195892">
                <ele>461.089478</ele>
                <time>2012-03-25T12:39:51.000Z</time>
                <name>Position 412</name>
            </trkpt>
            <trkpt lon="11.500714375" lat="48.488618592">
                <ele>464.454102</ele>
                <time>2012-03-25T12:40:10.000Z</time>
                <name>Position 413</name>
            </trkpt>
            <trkpt lon="11.500632986" lat="48.488752199">
                <ele>465.896118</ele>
                <time>2012-03-25T12:40:21.000Z</time>
                <name>Position 414</name>
            </trkpt>
            <trkpt lon="11.500485297" lat="48.488994939">
                <ele>469.260742</ele>
                <time>2012-03-25T12:40:39.000Z</time>
                <name>Position 415</name>
            </trkpt>
            <trkpt lon="11.500306595" lat="48.489327198">
                <ele>471.66394</ele>
                <time>2012-03-25T12:41:05.000Z</time>
                <name>Position 416</name>
            </trkpt>
            <trkpt lon="11.500050025" lat="48.489614446">
                <ele>473.106079</ele>
                <time>2012-03-25T12:41:30.000Z</time>
                <name>Position 417</name>
            </trkpt>
            <trkpt lon="11.499761268" lat="48.489825167">
                <ele>474.067261</ele>
                <time>2012-03-25T12:41:52.000Z</time>
                <name>Position 418</name>
            </trkpt>
            <trkpt lon="11.499537556" lat="48.489929773">
                <ele>474.067261</ele>
                <time>2012-03-25T12:42:04.000Z</time>
                <name>Position 419</name>
            </trkpt>
            <trkpt lon="11.498808498" lat="48.490161281">
                <ele>473.58667</ele>
                <time>2012-03-25T12:42:21.000Z</time>
                <name>Position 420</name>
            </trkpt>
            <trkpt lon="11.497650789" lat="48.490357501">
                <ele>473.106079</ele>
                <time>2012-03-25T12:42:38.000Z</time>
                <name>Position 421</name>
            </trkpt>
            <trkpt lon="11.497194814" lat="48.490384324">
                <ele>472.625366</ele>
                <time>2012-03-25T12:42:44.000Z</time>
                <name>Position 422</name>
            </trkpt>
            <trkpt lon="11.497085094" lat="48.490390778">
                <ele>472.144653</ele>
                <time>2012-03-25T12:42:48.000Z</time>
                <name>Position 423</name>
            </trkpt>
            <trkpt lon="11.495153485" lat="48.490262032">
                <ele>470.702637</ele>
                <time>2012-03-25T12:43:08.000Z</time>
                <name>Position 424</name>
            </trkpt>
            <trkpt lon="11.494315714" lat="48.490262032">
                <ele>473.106079</ele>
                <time>2012-03-25T12:43:19.000Z</time>
                <name>Position 425</name>
            </trkpt>
            <trkpt lon="11.493109809" lat="48.490554309">
                <ele>476.470581</ele>
                <time>2012-03-25T12:43:40.000Z</time>
                <name>Position 426</name>
            </trkpt>
            <trkpt lon="11.492967485" lat="48.490606779">
                <ele>475.989868</ele>
                <time>2012-03-25T12:43:50.000Z</time>
                <name>Position 427</name>
            </trkpt>
            <trkpt lon="11.492520394" lat="48.490794199">
                <ele>479.354492</ele>
                <time>2012-03-25T12:44:14.000Z</time>
                <name>Position 428</name>
            </trkpt>
            <trkpt lon="11.492222417" lat="48.490970973">
                <ele>482.719238</ele>
                <time>2012-03-25T12:44:35.000Z</time>
                <name>Position 429</name>
            </trkpt>
            <trkpt lon="11.491987808" lat="48.491110196">
                <ele>486.08374</ele>
                <time>2012-03-25T12:44:49.000Z</time>
                <name>Position 430</name>
            </trkpt>
            <trkpt lon="11.491971547" lat="48.491119836">
                <ele>486.08374</ele>
                <time>2012-03-25T12:44:50.000Z</time>
                <name>Position 431</name>
            </trkpt>
            <trkpt lon="11.491592601" lat="48.491344638">
                <ele>487.525635</ele>
                <time>2012-03-25T12:45:14.000Z</time>
                <name>Position 432</name>
            </trkpt>
            <trkpt lon="11.491281884" lat="48.49151521">
                <ele>488.00647</ele>
                <time>2012-03-25T12:45:33.000Z</time>
                <name>Position 433</name>
            </trkpt>
            <trkpt lon="11.490660114" lat="48.491764907">
                <ele>486.08374</ele>
                <time>2012-03-25T12:45:45.000Z</time>
                <name>Position 434</name>
            </trkpt>
            <trkpt lon="11.489778925" lat="48.491845038">
                <ele>488.00647</ele>
                <time>2012-03-25T12:46:00.000Z</time>
                <name>Position 435</name>
            </trkpt>
            <trkpt lon="11.488921288" lat="48.491864819">
                <ele>488.967773</ele>
                <time>2012-03-25T12:46:17.000Z</time>
                <name>Position 436</name>
            </trkpt>
            <trkpt lon="11.487822589" lat="48.49195593">
                <ele>490.40979</ele>
                <time>2012-03-25T12:46:37.000Z</time>
                <name>Position 437</name>
            </trkpt>
            <trkpt lon="11.487469962" lat="48.491998175">
                <ele>487.045044</ele>
                <time>2012-03-25T12:46:41.000Z</time>
                <name>Position 438</name>
            </trkpt>
            <trkpt lon="11.487362087" lat="48.492012005">
                <ele>487.045044</ele>
                <time>2012-03-25T12:46:42.000Z</time>
                <name>Position 439</name>
            </trkpt>
            <trkpt lon="11.486682985" lat="48.492102027">
                <ele>488.967773</ele>
                <time>2012-03-25T12:46:51.000Z</time>
                <name>Position 440</name>
            </trkpt>
            <trkpt lon="11.485564001" lat="48.492282322">
                <ele>490.40979</ele>
                <time>2012-03-25T12:47:12.000Z</time>
                <name>Position 441</name>
            </trkpt>
            <trkpt lon="11.48431384" lat="48.492582897">
                <ele>490.890381</ele>
                <time>2012-03-25T12:47:34.000Z</time>
                <name>Position 442</name>
            </trkpt>
            <trkpt lon="11.483370876" lat="48.49293502">
                <ele>491.851685</ele>
                <time>2012-03-25T12:47:54.000Z</time>
                <name>Position 443</name>
            </trkpt>
            <trkpt lon="11.482802918" lat="48.493330982">
                <ele>495.216187</ele>
                <time>2012-03-25T12:48:14.000Z</time>
                <name>Position 444</name>
            </trkpt>
            <trkpt lon="11.482440485" lat="48.493716381">
                <ele>497.619629</ele>
                <time>2012-03-25T12:48:31.000Z</time>
                <name>Position 445</name>
            </trkpt>
            <trkpt lon="11.482133288" lat="48.49405325">
                <ele>499.061523</ele>
                <time>2012-03-25T12:48:47.000Z</time>
                <name>Position 446</name>
            </trkpt>
            <trkpt lon="11.481858864" lat="48.494345695">
                <ele>498.100342</ele>
                <time>2012-03-25T12:49:01.000Z</time>
                <name>Position 447</name>
            </trkpt>
            <trkpt lon="11.481838664" lat="48.494367236">
                <ele>501.945557</ele>
                <time>2012-03-25T12:49:02.000Z</time>
                <name>Position 448</name>
            </trkpt>
            <trkpt lon="11.481397776" lat="48.494698238">
                <ele>500.984131</ele>
                <time>2012-03-25T12:49:18.000Z</time>
                <name>Position 449</name>
            </trkpt>
            <trkpt lon="11.480655475" lat="48.495120266">
                <ele>500.984131</ele>
                <time>2012-03-25T12:49:39.000Z</time>
                <name>Position 450</name>
            </trkpt>
            <trkpt lon="11.479986934" lat="48.495326545">
                <ele>501.464844</ele>
                <time>2012-03-25T12:49:54.000Z</time>
                <name>Position 451</name>
            </trkpt>
            <trkpt lon="11.479293834" lat="48.495344818">
                <ele>500.50354</ele>
                <time>2012-03-25T12:50:07.000Z</time>
                <name>Position 452</name>
            </trkpt>
            <trkpt lon="11.477997154" lat="48.495261418">
                <ele>496.658325</ele>
                <time>2012-03-25T12:50:22.000Z</time>
                <name>Position 453</name>
            </trkpt>
            <trkpt lon="11.477887351" lat="48.495246163">
                <ele>496.658325</ele>
                <time>2012-03-25T12:50:23.000Z</time>
                <name>Position 454</name>
            </trkpt>
            <trkpt lon="11.477649473" lat="48.49521297">
                <ele>495.216187</ele>
                <time>2012-03-25T12:50:25.000Z</time>
                <name>Position 455</name>
            </trkpt>
            <trkpt lon="11.477257954" lat="48.495154297">
                <ele>492.332397</ele>
                <time>2012-03-25T12:50:28.000Z</time>
                <name>Position 456</name>
            </trkpt>
            <trkpt lon="11.476981435" lat="48.495111801">
                <ele>490.890381</ele>
                <time>2012-03-25T12:50:30.000Z</time>
                <name>Position 457</name>
            </trkpt>
            <trkpt lon="11.475646617" lat="48.495029323">
                <ele>489.448364</ele>
                <time>2012-03-25T12:50:41.000Z</time>
                <name>Position 458</name>
            </trkpt>
            <trkpt lon="11.474159248" lat="48.495048182">
                <ele>489.448364</ele>
                <time>2012-03-25T12:51:00.000Z</time>
                <name>Position 459</name>
            </trkpt>
            <trkpt lon="11.472791573" lat="48.495293604">
                <ele>490.40979</ele>
                <time>2012-03-25T12:51:18.000Z</time>
                <name>Position 460</name>
            </trkpt>
            <trkpt lon="11.47162498" lat="48.495576577">
                <ele>490.890381</ele>
                <time>2012-03-25T12:51:34.000Z</time>
                <name>Position 461</name>
            </trkpt>
            <trkpt lon="11.471122485" lat="48.495699205">
                <ele>492.332397</ele>
                <time>2012-03-25T12:51:46.000Z</time>
                <name>Position 462</name>
            </trkpt>
            <trkpt lon="11.471060626" lat="48.495711526">
                <ele>492.812988</ele>
                <time>2012-03-25T12:51:54.000Z</time>
                <name>Position 463</name>
            </trkpt>
            <trkpt lon="11.470842361" lat="48.495755196">
                <ele>495.216187</ele>
                <time>2012-03-25T12:52:17.000Z</time>
                <name>Position 464</name>
            </trkpt>
            <trkpt lon="11.470842361" lat="48.495755196">
                <ele>498.580933</ele>
                <time>2012-03-25T12:52:33.000Z</time>
                <name>Position 465</name>
            </trkpt>
            <trkpt lon="11.470842361" lat="48.495755196">
                <ele>501.945557</ele>
                <time>2012-03-25T12:52:50.000Z</time>
                <name>Position 466</name>
            </trkpt>
            <trkpt lon="11.469801748" lat="48.496125257">
                <ele>501.945557</ele>
                <time>2012-03-25T12:53:07.000Z</time>
                <name>Position 467</name>
            </trkpt>
            <trkpt lon="11.469238317" lat="48.496523229">
                <ele>499.542236</ele>
                <time>2012-03-25T12:53:20.000Z</time>
                <name>Position 468</name>
            </trkpt>
            <trkpt lon="11.469007228" lat="48.496645018">
                <ele>500.022949</ele>
                <time>2012-03-25T12:53:25.000Z</time>
                <name>Position 469</name>
            </trkpt>
            <trkpt lon="11.469132872" lat="48.496878035">
                <ele>500.022949</ele>
                <time>2012-03-25T12:53:27.000Z</time>
                <name>Position 470</name>
            </trkpt>
            <trkpt lon="11.468460644" lat="48.497465355">
                <ele>499.061523</ele>
                <time>2012-03-25T12:53:43.000Z</time>
                <name>Position 471</name>
            </trkpt>
            <trkpt lon="11.467829905" lat="48.497910686">
                <ele>500.50354</ele>
                <time>2012-03-25T12:53:59.000Z</time>
                <name>Position 472</name>
            </trkpt>
            <trkpt lon="11.467067739" lat="48.498253757">
                <ele>502.906738</ele>
                <time>2012-03-25T12:54:19.000Z</time>
                <name>Position 473</name>
            </trkpt>
            <trkpt lon="11.466471786" lat="48.498638906">
                <ele>501.464844</ele>
                <time>2012-03-25T12:54:33.000Z</time>
                <name>Position 474</name>
            </trkpt>
            <trkpt lon="11.466023857" lat="48.498933278">
                <ele>499.061523</ele>
                <time>2012-03-25T12:54:41.000Z</time>
                <name>Position 475</name>
            </trkpt>
            <trkpt lon="11.465905085" lat="48.498957083">
                <ele>498.100342</ele>
                <time>2012-03-25T12:54:43.000Z</time>
                <name>Position 476</name>
            </trkpt>
            <trkpt lon="11.465713978" lat="48.498995304">
                <ele>497.138916</ele>
                <time>2012-03-25T12:54:47.000Z</time>
                <name>Position 477</name>
            </trkpt>
            <trkpt lon="11.465164879" lat="48.499093289">
                <ele>492.812988</ele>
                <time>2012-03-25T12:54:54.000Z</time>
                <name>Position 478</name>
            </trkpt>
            <trkpt lon="11.465120539" lat="48.49910385">
                <ele>492.812988</ele>
                <time>2012-03-25T12:54:55.000Z</time>
                <name>Position 479</name>
            </trkpt>
            <trkpt lon="11.465053987" lat="48.499119692">
                <ele>491.851685</ele>
                <time>2012-03-25T12:55:05.000Z</time>
                <name>Position 480</name>
            </trkpt>
            <trkpt lon="11.464644866" lat="48.499233518">
                <ele>489.448364</ele>
                <time>2012-03-25T12:55:25.000Z</time>
                <name>Position 481</name>
            </trkpt>
            <trkpt lon="11.464500614" lat="48.499279032">
                <ele>488.00647</ele>
                <time>2012-03-25T12:55:27.000Z</time>
                <name>Position 482</name>
            </trkpt>
            <trkpt lon="11.464351919" lat="48.499320522">
                <ele>487.525635</ele>
                <time>2012-03-25T12:55:29.000Z</time>
                <name>Position 483</name>
            </trkpt>
            <trkpt lon="11.464062659" lat="48.499524202">
                <ele>482.719238</ele>
                <time>2012-03-25T12:55:33.000Z</time>
                <name>Position 484</name>
            </trkpt>
            <trkpt lon="11.464003064" lat="48.499581534">
                <ele>481.277222</ele>
                <time>2012-03-25T12:55:34.000Z</time>
                <name>Position 485</name>
            </trkpt>
            <trkpt lon="11.463618083" lat="48.499941621">
                <ele>476.951294</ele>
                <time>2012-03-25T12:55:40.000Z</time>
                <name>Position 486</name>
            </trkpt>
            <trkpt lon="11.46355195" lat="48.499993589">
                <ele>476.470581</ele>
                <time>2012-03-25T12:55:41.000Z</time>
                <name>Position 487</name>
            </trkpt>
            <trkpt lon="11.463359585" lat="48.500136416">
                <ele>475.028687</ele>
                <time>2012-03-25T12:55:44.000Z</time>
                <name>Position 488</name>
            </trkpt>
            <trkpt lon="11.463021208" lat="48.500201292">
                <ele>474.067261</ele>
                <time>2012-03-25T12:55:48.000Z</time>
                <name>Position 489</name>
            </trkpt>
            <trkpt lon="11.461968524" lat="48.500245046">
                <ele>471.66394</ele>
                <time>2012-03-25T12:56:00.000Z</time>
                <name>Position 490</name>
            </trkpt>
            <trkpt lon="11.461243574" lat="48.499984033">
                <ele>470.221924</ele>
                <time>2012-03-25T12:56:10.000Z</time>
                <name>Position 491</name>
            </trkpt>
            <trkpt lon="11.460835962" lat="48.499978166">
                <ele>470.221924</ele>
                <time>2012-03-25T12:56:15.000Z</time>
                <name>Position 492</name>
            </trkpt>
            <trkpt lon="11.459726449" lat="48.50046264">
                <ele>469.260742</ele>
                <time>2012-03-25T12:56:33.000Z</time>
                <name>Position 493</name>
            </trkpt>
            <trkpt lon="11.459221188" lat="48.50069222">
                <ele>469.741333</ele>
                <time>2012-03-25T12:56:42.000Z</time>
                <name>Position 494</name>
            </trkpt>
            <trkpt lon="11.458956907" lat="48.500776878">
                <ele>469.260742</ele>
                <time>2012-03-25T12:56:46.000Z</time>
                <name>Position 495</name>
            </trkpt>
            <trkpt lon="11.457770113" lat="48.500967314">
                <ele>470.702637</ele>
                <time>2012-03-25T12:57:06.000Z</time>
                <name>Position 496</name>
            </trkpt>
            <trkpt lon="11.457196455" lat="48.501006709">
                <ele>469.260742</ele>
                <time>2012-03-25T12:57:17.000Z</time>
                <name>Position 497</name>
            </trkpt>
            <trkpt lon="11.456357762" lat="48.500790037">
                <ele>466.857422</ele>
                <time>2012-03-25T12:57:28.000Z</time>
                <name>Position 498</name>
            </trkpt>
            <trkpt lon="11.456007985" lat="48.50073983">
                <ele>466.857422</ele>
                <time>2012-03-25T12:57:36.000Z</time>
                <name>Position 499</name>
            </trkpt>
            <trkpt lon="11.455641612" lat="48.500556685">
                <ele>468.780029</ele>
                <time>2012-03-25T12:57:48.000Z</time>
                <name>Position 500</name>
            </trkpt>
            <trkpt lon="11.45525068" lat="48.500332218">
                <ele>471.18335</ele>
                <time>2012-03-25T12:58:01.000Z</time>
                <name>Position 501</name>
            </trkpt>
            <trkpt lon="11.454753969" lat="48.500277819">
                <ele>473.58667</ele>
                <time>2012-03-25T12:58:15.000Z</time>
                <name>Position 502</name>
            </trkpt>
            <trkpt lon="11.454567136" lat="48.500408074">
                <ele>474.547974</ele>
                <time>2012-03-25T12:58:23.000Z</time>
                <name>Position 503</name>
            </trkpt>
            <trkpt lon="11.454392374" lat="48.500388628">
                <ele>475.989868</ele>
                <time>2012-03-25T12:58:29.000Z</time>
                <name>Position 504</name>
            </trkpt>
            <trkpt lon="11.454024492" lat="48.500139685">
                <ele>476.951294</ele>
                <time>2012-03-25T12:58:46.000Z</time>
                <name>Position 505</name>
            </trkpt>
            <trkpt lon="11.453949725" lat="48.500084616">
                <ele>478.873901</ele>
                <time>2012-03-25T12:58:58.000Z</time>
                <name>Position 506</name>
            </trkpt>
            <trkpt lon="11.453949725" lat="48.500084616">
                <ele>480.796631</ele>
                <time>2012-03-25T12:59:04.000Z</time>
                <name>Position 507</name>
            </trkpt>
            <trkpt lon="11.453590309" lat="48.499939442">
                <ele>483.199829</ele>
                <time>2012-03-25T12:59:21.000Z</time>
                <name>Position 508</name>
            </trkpt>
            <trkpt lon="11.45340398" lat="48.499917984">
                <ele>483.199829</ele>
                <time>2012-03-25T12:59:36.000Z</time>
                <name>Position 509</name>
            </trkpt>
            <trkpt lon="11.453388054" lat="48.499935502">
                <ele>483.199829</ele>
                <time>2012-03-25T12:59:47.000Z</time>
                <name>Position 510</name>
            </trkpt>
            <trkpt lon="11.453618892" lat="48.500267342">
                <ele>483.199829</ele>
                <time>2012-03-25T13:00:01.000Z</time>
                <name>Position 511</name>
            </trkpt>
            <trkpt lon="11.454125913" lat="48.501004698">
                <ele>483.68042</ele>
                <time>2012-03-25T13:00:22.000Z</time>
                <name>Position 512</name>
            </trkpt>
            <trkpt lon="11.454164134" lat="48.501064796">
                <ele>483.68042</ele>
                <time>2012-03-25T13:00:24.000Z</time>
                <name>Position 513</name>
            </trkpt>
            <trkpt lon="11.454012841" lat="48.501207707">
                <ele>484.161133</ele>
                <time>2012-03-25T13:00:30.000Z</time>
                <name>Position 514</name>
            </trkpt>
            <trkpt lon="11.454012841" lat="48.501207707">
                <ele>484.161133</ele>
                <time>2012-03-25T13:00:34.000Z</time>
                <name>Position 515</name>
            </trkpt>
            <trkpt lon="11.453808993" lat="48.501275601">
                <ele>484.161133</ele>
                <time>2012-03-25T13:00:43.000Z</time>
                <name>Position 516</name>
            </trkpt>
            <trkpt lon="11.453697681" lat="48.501312733">
                <ele>484.161133</ele>
                <time>2012-03-25T13:00:50.000Z</time>
                <name>Position 517</name>
            </trkpt>
            <trkpt lon="11.452749688" lat="48.501215754">
                <ele>482.238525</ele>
                <time>2012-03-25T13:01:06.000Z</time>
                <name>Position 518</name>
            </trkpt>
            <trkpt lon="11.452376274" lat="48.50124836">
                <ele>481.277222</ele>
                <time>2012-03-25T13:01:20.000Z</time>
                <name>Position 519</name>
            </trkpt>
            <trkpt lon="11.452376274" lat="48.50124836">
                <ele>480.796631</ele>
                <time>2012-03-25T13:01:21.000Z</time>
                <name>Position 520</name>
            </trkpt>
            <trkpt lon="11.452281475" lat="48.50124836">
                <ele>480.796631</ele>
                <time>2012-03-25T13:01:30.000Z</time>
                <name>Position 521</name>
            </trkpt>
            <trkpt lon="11.451961705" lat="48.501160434">
                <ele>480.315918</ele>
                <time>2012-03-25T13:01:44.000Z</time>
                <name>Position 522</name>
            </trkpt>
            <trkpt lon="11.451914264" lat="48.501147358">
                <ele>480.315918</ele>
                <time>2012-03-25T13:01:47.000Z</time>
                <name>Position 523</name>
            </trkpt>
            <trkpt lon="11.45189683" lat="48.50114258">
                <ele>480.315918</ele>
                <time>2012-03-25T13:02:00.000Z</time>
                <name>Position 524</name>
            </trkpt>
            <trkpt lon="11.45189683" lat="48.50114258">
                <ele>480.315918</ele>
                <time>2012-03-25T13:02:18.000Z</time>
                <name>Position 525</name>
            </trkpt>
            <trkpt lon="11.45189683" lat="48.50114258">
                <ele>480.796631</ele>
                <time>2012-03-25T13:02:57.000Z</time>
                <name>Position 526</name>
            </trkpt>
            <trkpt lon="11.45189683" lat="48.50114258">
                <ele>479.835083</ele>
                <time>2012-03-25T13:03:16.000Z</time>
                <name>Position 527</name>
            </trkpt>
            <trkpt lon="11.45189683" lat="48.50114258">
                <ele>479.835083</ele>
                <time>2012-03-25T13:04:14.000Z</time>
                <name>Position 528</name>
            </trkpt>
            <trkpt lon="11.45189683" lat="48.50114258">
                <ele>480.315918</ele>
                <time>2012-03-25T13:04:21.000Z</time>
                <name>Position 529</name>
            </trkpt>
            <trkpt lon="11.451924322" lat="48.500854746">
                <ele>481.757813</ele>
                <time>2012-03-25T13:04:27.000Z</time>
                <name>Position 530</name>
            </trkpt>
            <trkpt lon="11.451954748" lat="48.500842592">
                <ele>482.238525</ele>
                <time>2012-03-25T13:04:34.000Z</time>
                <name>Position 531</name>
            </trkpt>
            <trkpt lon="11.451954748" lat="48.500842592">
                <ele>482.719238</ele>
                <time>2012-03-25T13:04:43.000Z</time>
                <name>Position 532</name>
            </trkpt>
            <trkpt lon="11.451954748" lat="48.500842592">
                <ele>483.199829</ele>
                <time>2012-03-25T13:04:47.000Z</time>
                <name>Position 533</name>
            </trkpt>
            <trkpt lon="11.451954748" lat="48.500842592">
                <ele>485.122437</ele>
                <time>2012-03-25T13:05:09.000Z</time>
                <name>Position 534</name>
            </trkpt>
            <trkpt lon="11.451954748" lat="48.500842592">
                <ele>486.08374</ele>
                <time>2012-03-25T13:05:25.000Z</time>
                <name>Position 535</name>
            </trkpt>
            <trkpt lon="11.451954748" lat="48.500842592">
                <ele>485.603027</ele>
                <time>2012-03-25T13:05:34.000Z</time>
                <name>Position 536</name>
            </trkpt>
            <trkpt lon="11.451954748" lat="48.500842592">
                <ele>485.122437</ele>
                <time>2012-03-25T13:05:55.000Z</time>
                <name>Position 537</name>
            </trkpt>
            <trkpt lon="11.451954748" lat="48.500842592">
                <ele>485.122437</ele>
                <time>2012-03-25T13:06:07.000Z</time>
                <name>Position 538</name>
            </trkpt>
            <trkpt lon="11.451954748" lat="48.500842592">
                <ele>485.122437</ele>
                <time>2012-03-25T13:06:35.000Z</time>
                <name>Position 539</name>
            </trkpt>
            <trkpt lon="11.451954748" lat="48.500842592">
                <ele>483.68042</ele>
                <time>2012-03-25T13:06:49.000Z</time>
                <name>Position 540</name>
            </trkpt>
            <trkpt lon="11.451954748" lat="48.500842592">
                <ele>484.161133</ele>
                <time>2012-03-25T13:06:53.000Z</time>
                <name>Position 541</name>
            </trkpt>
            <trkpt lon="11.451954748" lat="48.500842592">
                <ele>483.199829</ele>
                <time>2012-03-25T13:07:38.000Z</time>
                <name>Position 542</name>
            </trkpt>
            <trkpt lon="11.451954748" lat="48.500842592">
                <ele>484.641846</ele>
                <time>2012-03-25T13:08:30.000Z</time>
                <name>Position 543</name>
            </trkpt>
            <trkpt lon="11.451954748" lat="48.500842592">
                <ele>485.122437</ele>
                <time>2012-03-25T13:08:50.000Z</time>
                <name>Position 544</name>
            </trkpt>
            <trkpt lon="11.451954748" lat="48.500842592">
                <ele>486.564453</ele>
                <time>2012-03-25T13:08:52.000Z</time>
                <name>Position 545</name>
            </trkpt>
            <trkpt lon="11.451954748" lat="48.500842592">
                <ele>482.719238</ele>
                <time>2012-03-25T13:09:42.000Z</time>
                <name>Position 546</name>
            </trkpt>
            <trkpt lon="11.451954748" lat="48.500842592">
                <ele>486.564453</ele>
                <time>2012-03-25T13:09:44.000Z</time>
                <name>Position 547</name>
            </trkpt>
            <trkpt lon="11.451954748" lat="48.500842592">
                <ele>486.08374</ele>
                <time>2012-03-25T13:09:58.000Z</time>
                <name>Position 548</name>
            </trkpt>
            <trkpt lon="11.451954748" lat="48.500842592">
                <ele>484.161133</ele>
                <time>2012-03-25T13:10:08.000Z</time>
                <name>Position 549</name>
            </trkpt>
        </trkseg>
    </trk>
</gpx>
